<?xml version="1.0" encoding="UTF-8" standalone="no" ?>
<gpx xmlns="http://www.topografix.com/GPX/1/1" xmlns:xsi="http://www.w3.org/2001/XMLSchema-instance" xsi:schemaLocation="http://www.topografix.com/GPX/1/1 http://www.topografix.com/GPX/1/1/gpx.xsd" version="1.1" creator="VisuGPX - https://www.visugpx.com">
  <metadata>
    <name>FBL - 15.87KM - D 203M</name>
    <desc><![CDATA[EN FORET DE FONTAINEBLEAU POUR UNE REPRISE.]]></desc>
  </metadata>
  <trk>
    <name><![CDATA[FBL 15.8 D+ 181M]]></name>
    <trkseg>
      <trkpt lat="48.44165" lon="2.6691">
        <ele>132.8</ele>
        <time>2014-01-14T12:06:35Z</time>
      </trkpt>
      <trkpt lat="48.44162" lon="2.66908">
        <ele>132.8</ele>
        <time>2014-01-14T12:06:38Z</time>
      </trkpt>
      <trkpt lat="48.44162" lon="2.66902">
        <ele>132.8</ele>
        <time>2014-01-14T12:06:41Z</time>
      </trkpt>
      <trkpt lat="48.44165" lon="2.669">
        <ele>132.8</ele>
        <time>2014-01-14T12:06:43Z</time>
      </trkpt>
      <trkpt lat="48.44167" lon="2.66901">
        <ele>132.8</ele>
        <time>2014-01-14T12:06:44Z</time>
      </trkpt>
      <trkpt lat="48.44169" lon="2.66902">
        <ele>132.8</ele>
        <time>2014-01-14T12:06:45Z</time>
      </trkpt>
      <trkpt lat="48.44171" lon="2.66903">
        <ele>132.8</ele>
        <time>2014-01-14T12:06:46Z</time>
      </trkpt>
      <trkpt lat="48.44173" lon="2.66905">
        <ele>132.8</ele>
        <time>2014-01-14T12:06:47Z</time>
      </trkpt>
      <trkpt lat="48.44174" lon="2.66907">
        <ele>132.8</ele>
        <time>2014-01-14T12:06:48Z</time>
      </trkpt>
      <trkpt lat="48.44178" lon="2.66912">
        <ele>132.8</ele>
        <time>2014-01-14T12:06:55Z</time>
      </trkpt>
      <trkpt lat="48.4418" lon="2.66918">
        <ele>132.8</ele>
        <time>2014-01-14T12:06:58Z</time>
      </trkpt>
      <trkpt lat="48.44181" lon="2.66921">
        <ele>132.8</ele>
        <time>2014-01-14T12:06:59Z</time>
      </trkpt>
      <trkpt lat="48.44182" lon="2.66924">
        <ele>132.8</ele>
        <time>2014-01-14T12:07:00Z</time>
      </trkpt>
      <trkpt lat="48.44187" lon="2.66955">
        <ele>132.8</ele>
        <time>2014-01-14T12:07:10Z</time>
      </trkpt>
      <trkpt lat="48.44187" lon="2.66958">
        <ele>132.8</ele>
        <time>2014-01-14T12:07:11Z</time>
      </trkpt>
      <trkpt lat="48.44188" lon="2.66961">
        <ele>132.8</ele>
        <time>2014-01-14T12:07:12Z</time>
      </trkpt>
      <trkpt lat="48.4419" lon="2.66962">
        <ele>132.8</ele>
        <time>2014-01-14T12:07:13Z</time>
      </trkpt>
      <trkpt lat="48.44191" lon="2.66964">
        <ele>132.8</ele>
        <time>2014-01-14T12:07:14Z</time>
      </trkpt>
      <trkpt lat="48.44192" lon="2.66966">
        <ele>132.8</ele>
        <time>2014-01-14T12:07:15Z</time>
      </trkpt>
      <trkpt lat="48.44191" lon="2.66971">
        <ele>132.8</ele>
        <time>2014-01-14T12:07:20Z</time>
      </trkpt>
      <trkpt lat="48.44193" lon="2.66977">
        <ele>132.8</ele>
        <time>2014-01-14T12:07:25Z</time>
      </trkpt>
      <trkpt lat="48.44194" lon="2.66982">
        <ele>132.8</ele>
        <time>2014-01-14T12:07:28Z</time>
      </trkpt>
      <trkpt lat="48.44195" lon="2.66984">
        <ele>132.8</ele>
        <time>2014-01-14T12:07:29Z</time>
      </trkpt>
      <trkpt lat="48.44196" lon="2.66986">
        <ele>132.8</ele>
        <time>2014-01-14T12:07:30Z</time>
      </trkpt>
      <trkpt lat="48.44197" lon="2.6699">
        <ele>132.8</ele>
        <time>2014-01-14T12:07:31Z</time>
      </trkpt>
      <trkpt lat="48.44199" lon="2.66994">
        <ele>132.8</ele>
        <time>2014-01-14T12:07:32Z</time>
      </trkpt>
      <trkpt lat="48.44201" lon="2.66999">
        <ele>132.8</ele>
        <time>2014-01-14T12:07:33Z</time>
      </trkpt>
      <trkpt lat="48.44203" lon="2.67002">
        <ele>132.8</ele>
        <time>2014-01-14T12:07:34Z</time>
      </trkpt>
      <trkpt lat="48.44204" lon="2.67005">
        <ele>132.8</ele>
        <time>2014-01-14T12:07:35Z</time>
      </trkpt>
      <trkpt lat="48.44204" lon="2.67008">
        <ele>132.8</ele>
        <time>2014-01-14T12:07:36Z</time>
      </trkpt>
      <trkpt lat="48.44204" lon="2.67011">
        <ele>132.8</ele>
        <time>2014-01-14T12:07:37Z</time>
      </trkpt>
      <trkpt lat="48.44204" lon="2.67014">
        <ele>132.8</ele>
        <time>2014-01-14T12:07:38Z</time>
      </trkpt>
      <trkpt lat="48.44204" lon="2.67018">
        <ele>132.8</ele>
        <time>2014-01-14T12:07:39Z</time>
      </trkpt>
      <trkpt lat="48.44206" lon="2.67023">
        <ele>132.8</ele>
        <time>2014-01-14T12:07:40Z</time>
      </trkpt>
      <trkpt lat="48.44207" lon="2.67028">
        <ele>132.32</ele>
        <time>2014-01-14T12:07:41Z</time>
      </trkpt>
      <trkpt lat="48.44208" lon="2.67032">
        <ele>132.32</ele>
        <time>2014-01-14T12:07:42Z</time>
      </trkpt>
      <trkpt lat="48.44209" lon="2.67036">
        <ele>132.32</ele>
        <time>2014-01-14T12:07:43Z</time>
      </trkpt>
      <trkpt lat="48.44209" lon="2.67039">
        <ele>131.84</ele>
        <time>2014-01-14T12:07:44Z</time>
      </trkpt>
      <trkpt lat="48.44213" lon="2.67049">
        <ele>131.84</ele>
        <time>2014-01-14T12:07:48Z</time>
      </trkpt>
      <trkpt lat="48.44216" lon="2.67057">
        <ele>131.84</ele>
        <time>2014-01-14T12:07:50Z</time>
      </trkpt>
      <trkpt lat="48.44216" lon="2.67061">
        <ele>131.84</ele>
        <time>2014-01-14T12:07:51Z</time>
      </trkpt>
      <trkpt lat="48.44217" lon="2.67065">
        <ele>131.84</ele>
        <time>2014-01-14T12:07:52Z</time>
      </trkpt>
      <trkpt lat="48.44217" lon="2.67068">
        <ele>131.84</ele>
        <time>2014-01-14T12:07:53Z</time>
      </trkpt>
      <trkpt lat="48.44218" lon="2.6707">
        <ele>131.84</ele>
        <time>2014-01-14T12:07:54Z</time>
      </trkpt>
      <trkpt lat="48.4422" lon="2.67074">
        <ele>131.84</ele>
        <time>2014-01-14T12:07:55Z</time>
      </trkpt>
      <trkpt lat="48.44223" lon="2.67079">
        <ele>131.84</ele>
        <time>2014-01-14T12:07:56Z</time>
      </trkpt>
      <trkpt lat="48.44226" lon="2.67083">
        <ele>131.84</ele>
        <time>2014-01-14T12:07:57Z</time>
      </trkpt>
      <trkpt lat="48.44228" lon="2.67085">
        <ele>131.84</ele>
        <time>2014-01-14T12:07:58Z</time>
      </trkpt>
      <trkpt lat="48.44235" lon="2.67088">
        <ele>131.36</ele>
        <time>2014-01-14T12:08:05Z</time>
      </trkpt>
      <trkpt lat="48.44243" lon="2.67075">
        <ele>129.43</ele>
        <time>2014-01-14T12:08:11Z</time>
      </trkpt>
      <trkpt lat="48.44251" lon="2.67072">
        <ele>129.43</ele>
        <time>2014-01-14T12:08:14Z</time>
      </trkpt>
      <trkpt lat="48.44254" lon="2.67074">
        <ele>129.43</ele>
        <time>2014-01-14T12:08:15Z</time>
      </trkpt>
      <trkpt lat="48.44256" lon="2.67078">
        <ele>129.43</ele>
        <time>2014-01-14T12:08:16Z</time>
      </trkpt>
      <trkpt lat="48.44264" lon="2.67098">
        <ele>129.43</ele>
        <time>2014-01-14T12:08:20Z</time>
      </trkpt>
      <trkpt lat="48.44272" lon="2.67114">
        <ele>131.36</ele>
        <time>2014-01-14T12:08:25Z</time>
      </trkpt>
      <trkpt lat="48.44274" lon="2.67115">
        <ele>131.36</ele>
        <time>2014-01-14T12:08:26Z</time>
      </trkpt>
      <trkpt lat="48.44273" lon="2.67125">
        <ele>131.36</ele>
        <time>2014-01-14T12:08:29Z</time>
      </trkpt>
      <trkpt lat="48.44271" lon="2.67128">
        <ele>131.36</ele>
        <time>2014-01-14T12:08:30Z</time>
      </trkpt>
      <trkpt lat="48.4427" lon="2.67133">
        <ele>131.36</ele>
        <time>2014-01-14T12:08:31Z</time>
      </trkpt>
      <trkpt lat="48.44261" lon="2.67162">
        <ele>131.36</ele>
        <time>2014-01-14T12:08:36Z</time>
      </trkpt>
      <trkpt lat="48.44259" lon="2.67168">
        <ele>129.92</ele>
        <time>2014-01-14T12:08:37Z</time>
      </trkpt>
      <trkpt lat="48.44257" lon="2.67174">
        <ele>129.92</ele>
        <time>2014-01-14T12:08:38Z</time>
      </trkpt>
      <trkpt lat="48.44254" lon="2.67197">
        <ele>130.88</ele>
        <time>2014-01-14T12:08:44Z</time>
      </trkpt>
      <trkpt lat="48.44257" lon="2.67205">
        <ele>130.88</ele>
        <time>2014-01-14T12:08:53Z</time>
      </trkpt>
      <trkpt lat="48.44259" lon="2.67207">
        <ele>130.88</ele>
        <time>2014-01-14T12:08:54Z</time>
      </trkpt>
      <trkpt lat="48.44265" lon="2.67221">
        <ele>129.43</ele>
        <time>2014-01-14T12:08:57Z</time>
      </trkpt>
      <trkpt lat="48.44267" lon="2.67227">
        <ele>129.43</ele>
        <time>2014-01-14T12:08:58Z</time>
      </trkpt>
      <trkpt lat="48.4427" lon="2.67233">
        <ele>129.43</ele>
        <time>2014-01-14T12:08:59Z</time>
      </trkpt>
      <trkpt lat="48.44278" lon="2.67247">
        <ele>130.4</ele>
        <time>2014-01-14T12:09:02Z</time>
      </trkpt>
      <trkpt lat="48.4428" lon="2.67253">
        <ele>130.4</ele>
        <time>2014-01-14T12:09:03Z</time>
      </trkpt>
      <trkpt lat="48.44312" lon="2.67292">
        <ele>130.88</ele>
        <time>2014-01-14T12:09:13Z</time>
      </trkpt>
      <trkpt lat="48.44317" lon="2.67298">
        <ele>130.88</ele>
        <time>2014-01-14T12:09:15Z</time>
      </trkpt>
      <trkpt lat="48.44319" lon="2.67298">
        <ele>130.88</ele>
        <time>2014-01-14T12:09:16Z</time>
      </trkpt>
      <trkpt lat="48.44321" lon="2.67297">
        <ele>130.88</ele>
        <time>2014-01-14T12:09:17Z</time>
      </trkpt>
      <trkpt lat="48.44324" lon="2.67296">
        <ele>130.88</ele>
        <time>2014-01-14T12:09:18Z</time>
      </trkpt>
      <trkpt lat="48.44326" lon="2.67294">
        <ele>130.88</ele>
        <time>2014-01-14T12:09:19Z</time>
      </trkpt>
      <trkpt lat="48.44327" lon="2.67292">
        <ele>130.88</ele>
        <time>2014-01-14T12:09:20Z</time>
      </trkpt>
      <trkpt lat="48.44329" lon="2.67291">
        <ele>131.84</ele>
        <time>2014-01-14T12:09:21Z</time>
      </trkpt>
      <trkpt lat="48.44332" lon="2.6729">
        <ele>131.84</ele>
        <time>2014-01-14T12:09:22Z</time>
      </trkpt>
      <trkpt lat="48.44333" lon="2.67288">
        <ele>132.32</ele>
        <time>2014-01-14T12:09:23Z</time>
      </trkpt>
      <trkpt lat="48.44335" lon="2.67286">
        <ele>132.32</ele>
        <time>2014-01-14T12:09:24Z</time>
      </trkpt>
      <trkpt lat="48.44336" lon="2.67284">
        <ele>132.32</ele>
        <time>2014-01-14T12:09:25Z</time>
      </trkpt>
      <trkpt lat="48.44336" lon="2.67281">
        <ele>132.32</ele>
        <time>2014-01-14T12:09:26Z</time>
      </trkpt>
      <trkpt lat="48.44337" lon="2.67278">
        <ele>132.32</ele>
        <time>2014-01-14T12:09:27Z</time>
      </trkpt>
      <trkpt lat="48.44338" lon="2.67276">
        <ele>133.28</ele>
        <time>2014-01-14T12:09:28Z</time>
      </trkpt>
      <trkpt lat="48.44339" lon="2.67273">
        <ele>133.28</ele>
        <time>2014-01-14T12:09:29Z</time>
      </trkpt>
      <trkpt lat="48.4434" lon="2.67272">
        <ele>133.28</ele>
        <time>2014-01-14T12:09:30Z</time>
      </trkpt>
      <trkpt lat="48.44341" lon="2.67268">
        <ele>133.28</ele>
        <time>2014-01-14T12:09:31Z</time>
      </trkpt>
      <trkpt lat="48.44346" lon="2.67258">
        <ele>133.28</ele>
        <time>2014-01-14T12:09:32Z</time>
      </trkpt>
      <trkpt lat="48.44349" lon="2.67251">
        <ele>133.28</ele>
        <time>2014-01-14T12:09:33Z</time>
      </trkpt>
      <trkpt lat="48.44351" lon="2.67247">
        <ele>133.28</ele>
        <time>2014-01-14T12:09:34Z</time>
      </trkpt>
      <trkpt lat="48.44371" lon="2.67208">
        <ele>133.76</ele>
        <time>2014-01-14T12:09:43Z</time>
      </trkpt>
      <trkpt lat="48.4438" lon="2.67205">
        <ele>133.76</ele>
        <time>2014-01-14T12:09:46Z</time>
      </trkpt>
      <trkpt lat="48.44383" lon="2.67207">
        <ele>133.76</ele>
        <time>2014-01-14T12:09:47Z</time>
      </trkpt>
      <trkpt lat="48.44384" lon="2.67211">
        <ele>133.76</ele>
        <time>2014-01-14T12:09:48Z</time>
      </trkpt>
      <trkpt lat="48.44386" lon="2.67216">
        <ele>134.24</ele>
        <time>2014-01-14T12:09:49Z</time>
      </trkpt>
      <trkpt lat="48.44386" lon="2.67221">
        <ele>134.24</ele>
        <time>2014-01-14T12:09:50Z</time>
      </trkpt>
      <trkpt lat="48.44386" lon="2.67227">
        <ele>134.24</ele>
        <time>2014-01-14T12:09:51Z</time>
      </trkpt>
      <trkpt lat="48.44386" lon="2.67232">
        <ele>134.24</ele>
        <time>2014-01-14T12:09:52Z</time>
      </trkpt>
      <trkpt lat="48.44386" lon="2.67238">
        <ele>134.24</ele>
        <time>2014-01-14T12:09:53Z</time>
      </trkpt>
      <trkpt lat="48.44387" lon="2.67245">
        <ele>134.24</ele>
        <time>2014-01-14T12:09:54Z</time>
      </trkpt>
      <trkpt lat="48.44387" lon="2.67251">
        <ele>134.24</ele>
        <time>2014-01-14T12:09:55Z</time>
      </trkpt>
      <trkpt lat="48.44388" lon="2.67256">
        <ele>134.24</ele>
        <time>2014-01-14T12:09:56Z</time>
      </trkpt>
      <trkpt lat="48.44391" lon="2.67335">
        <ele>134.24</ele>
        <time>2014-01-14T12:10:10Z</time>
      </trkpt>
      <trkpt lat="48.44384" lon="2.67397">
        <ele>134.24</ele>
        <time>2014-01-14T12:10:20Z</time>
      </trkpt>
      <trkpt lat="48.44383" lon="2.67404">
        <ele>134.24</ele>
        <time>2014-01-14T12:10:21Z</time>
      </trkpt>
      <trkpt lat="48.44377" lon="2.67464">
        <ele>132.8</ele>
        <time>2014-01-14T12:10:30Z</time>
      </trkpt>
      <trkpt lat="48.44366" lon="2.67529">
        <ele>132.8</ele>
        <time>2014-01-14T12:10:39Z</time>
      </trkpt>
      <trkpt lat="48.44364" lon="2.67544">
        <ele>132.8</ele>
        <time>2014-01-14T12:10:41Z</time>
      </trkpt>
      <trkpt lat="48.44363" lon="2.67551">
        <ele>132.8</ele>
        <time>2014-01-14T12:10:42Z</time>
      </trkpt>
      <trkpt lat="48.44359" lon="2.67581">
        <ele>132.8</ele>
        <time>2014-01-14T12:10:46Z</time>
      </trkpt>
      <trkpt lat="48.44358" lon="2.67596">
        <ele>132.8</ele>
        <time>2014-01-14T12:10:48Z</time>
      </trkpt>
      <trkpt lat="48.44355" lon="2.67619">
        <ele>132.32</ele>
        <time>2014-01-14T12:10:51Z</time>
      </trkpt>
      <trkpt lat="48.44355" lon="2.67627">
        <ele>132.32</ele>
        <time>2014-01-14T12:10:52Z</time>
      </trkpt>
      <trkpt lat="48.44354" lon="2.67634">
        <ele>132.32</ele>
        <time>2014-01-14T12:10:53Z</time>
      </trkpt>
      <trkpt lat="48.44352" lon="2.67647">
        <ele>132.32</ele>
        <time>2014-01-14T12:10:55Z</time>
      </trkpt>
      <trkpt lat="48.44349" lon="2.67653">
        <ele>132.32</ele>
        <time>2014-01-14T12:10:56Z</time>
      </trkpt>
      <trkpt lat="48.44335" lon="2.67691">
        <ele>131.84</ele>
        <time>2014-01-14T12:11:02Z</time>
      </trkpt>
      <trkpt lat="48.44334" lon="2.67698">
        <ele>131.84</ele>
        <time>2014-01-14T12:11:03Z</time>
      </trkpt>
      <trkpt lat="48.44333" lon="2.67706">
        <ele>131.84</ele>
        <time>2014-01-14T12:11:04Z</time>
      </trkpt>
      <trkpt lat="48.44332" lon="2.67712">
        <ele>131.84</ele>
        <time>2014-01-14T12:11:05Z</time>
      </trkpt>
      <trkpt lat="48.44331" lon="2.67719">
        <ele>131.84</ele>
        <time>2014-01-14T12:11:06Z</time>
      </trkpt>
      <trkpt lat="48.44323" lon="2.67768">
        <ele>131.36</ele>
        <time>2014-01-14T12:11:13Z</time>
      </trkpt>
      <trkpt lat="48.44319" lon="2.6782">
        <ele>131.84</ele>
        <time>2014-01-14T12:11:20Z</time>
      </trkpt>
      <trkpt lat="48.44325" lon="2.67885">
        <ele>131.84</ele>
        <time>2014-01-14T12:11:28Z</time>
      </trkpt>
      <trkpt lat="48.44325" lon="2.67892">
        <ele>131.84</ele>
        <time>2014-01-14T12:11:29Z</time>
      </trkpt>
      <trkpt lat="48.44324" lon="2.67899">
        <ele>131.84</ele>
        <time>2014-01-14T12:11:30Z</time>
      </trkpt>
      <trkpt lat="48.44322" lon="2.67912">
        <ele>131.84</ele>
        <time>2014-01-14T12:11:32Z</time>
      </trkpt>
      <trkpt lat="48.44319" lon="2.67919">
        <ele>131.84</ele>
        <time>2014-01-14T12:11:33Z</time>
      </trkpt>
      <trkpt lat="48.44316" lon="2.67926">
        <ele>131.84</ele>
        <time>2014-01-14T12:11:34Z</time>
      </trkpt>
      <trkpt lat="48.44295" lon="2.67964">
        <ele>130.88</ele>
        <time>2014-01-14T12:11:40Z</time>
      </trkpt>
      <trkpt lat="48.44293" lon="2.6797">
        <ele>130.88</ele>
        <time>2014-01-14T12:11:41Z</time>
      </trkpt>
      <trkpt lat="48.44278" lon="2.68">
        <ele>128.47</ele>
        <time>2014-01-14T12:11:49Z</time>
      </trkpt>
      <trkpt lat="48.44276" lon="2.68001">
        <ele>128.47</ele>
        <time>2014-01-14T12:11:50Z</time>
      </trkpt>
      <trkpt lat="48.44274" lon="2.68002">
        <ele>128.47</ele>
        <time>2014-01-14T12:11:51Z</time>
      </trkpt>
      <trkpt lat="48.44274" lon="2.68005">
        <ele>128.47</ele>
        <time>2014-01-14T12:11:52Z</time>
      </trkpt>
      <trkpt lat="48.44275" lon="2.68006">
        <ele>128.47</ele>
        <time>2014-01-14T12:11:53Z</time>
      </trkpt>
      <trkpt lat="48.44276" lon="2.68005">
        <ele>128.47</ele>
        <time>2014-01-14T12:11:54Z</time>
      </trkpt>
      <trkpt lat="48.44277" lon="2.68004">
        <ele>128.47</ele>
        <time>2014-01-14T12:11:55Z</time>
      </trkpt>
      <trkpt lat="48.44278" lon="2.68004">
        <ele>128.47</ele>
        <time>2014-01-14T12:11:56Z</time>
      </trkpt>
      <trkpt lat="48.44279" lon="2.68003">
        <ele>128.47</ele>
        <time>2014-01-14T12:11:57Z</time>
      </trkpt>
      <trkpt lat="48.44287" lon="2.68002">
        <ele>128.47</ele>
        <time>2014-01-14T12:12:01Z</time>
      </trkpt>
      <trkpt lat="48.44289" lon="2.68003">
        <ele>129.92</ele>
        <time>2014-01-14T12:12:02Z</time>
      </trkpt>
      <trkpt lat="48.44291" lon="2.68006">
        <ele>129.92</ele>
        <time>2014-01-14T12:12:03Z</time>
      </trkpt>
      <trkpt lat="48.44293" lon="2.6801">
        <ele>129.92</ele>
        <time>2014-01-14T12:12:04Z</time>
      </trkpt>
      <trkpt lat="48.44294" lon="2.68016">
        <ele>129.92</ele>
        <time>2014-01-14T12:12:05Z</time>
      </trkpt>
      <trkpt lat="48.44294" lon="2.68022">
        <ele>129.92</ele>
        <time>2014-01-14T12:12:06Z</time>
      </trkpt>
      <trkpt lat="48.44296" lon="2.68034">
        <ele>130.4</ele>
        <time>2014-01-14T12:12:08Z</time>
      </trkpt>
      <trkpt lat="48.44296" lon="2.6804">
        <ele>130.4</ele>
        <time>2014-01-14T12:12:09Z</time>
      </trkpt>
      <trkpt lat="48.44296" lon="2.68047">
        <ele>130.4</ele>
        <time>2014-01-14T12:12:10Z</time>
      </trkpt>
      <trkpt lat="48.44296" lon="2.68053">
        <ele>130.4</ele>
        <time>2014-01-14T12:12:11Z</time>
      </trkpt>
      <trkpt lat="48.44295" lon="2.6806">
        <ele>130.4</ele>
        <time>2014-01-14T12:12:12Z</time>
      </trkpt>
      <trkpt lat="48.44296" lon="2.68065">
        <ele>130.4</ele>
        <time>2014-01-14T12:12:13Z</time>
      </trkpt>
      <trkpt lat="48.44298" lon="2.68069">
        <ele>130.4</ele>
        <time>2014-01-14T12:12:14Z</time>
      </trkpt>
      <trkpt lat="48.443" lon="2.68073">
        <ele>130.4</ele>
        <time>2014-01-14T12:12:15Z</time>
      </trkpt>
      <trkpt lat="48.44302" lon="2.68078">
        <ele>130.4</ele>
        <time>2014-01-14T12:12:16Z</time>
      </trkpt>
      <trkpt lat="48.44304" lon="2.68084">
        <ele>130.4</ele>
        <time>2014-01-14T12:12:17Z</time>
      </trkpt>
      <trkpt lat="48.44305" lon="2.6809">
        <ele>130.4</ele>
        <time>2014-01-14T12:12:18Z</time>
      </trkpt>
      <trkpt lat="48.44306" lon="2.68096">
        <ele>130.4</ele>
        <time>2014-01-14T12:12:19Z</time>
      </trkpt>
      <trkpt lat="48.44305" lon="2.68102">
        <ele>130.4</ele>
        <time>2014-01-14T12:12:20Z</time>
      </trkpt>
      <trkpt lat="48.44305" lon="2.68107">
        <ele>130.4</ele>
        <time>2014-01-14T12:12:21Z</time>
      </trkpt>
      <trkpt lat="48.44304" lon="2.68113">
        <ele>130.4</ele>
        <time>2014-01-14T12:12:22Z</time>
      </trkpt>
      <trkpt lat="48.44304" lon="2.68119">
        <ele>128.95</ele>
        <time>2014-01-14T12:12:23Z</time>
      </trkpt>
      <trkpt lat="48.44304" lon="2.68125">
        <ele>128.95</ele>
        <time>2014-01-14T12:12:24Z</time>
      </trkpt>
      <trkpt lat="48.44304" lon="2.68129">
        <ele>128.47</ele>
        <time>2014-01-14T12:12:25Z</time>
      </trkpt>
      <trkpt lat="48.44305" lon="2.68132">
        <ele>128.47</ele>
        <time>2014-01-14T12:12:26Z</time>
      </trkpt>
      <trkpt lat="48.44306" lon="2.68141">
        <ele>127.99</ele>
        <time>2014-01-14T12:12:35Z</time>
      </trkpt>
      <trkpt lat="48.44307" lon="2.68142">
        <ele>127.99</ele>
        <time>2014-01-14T12:12:36Z</time>
      </trkpt>
      <trkpt lat="48.44309" lon="2.68144">
        <ele>129.43</ele>
        <time>2014-01-14T12:12:39Z</time>
      </trkpt>
      <trkpt lat="48.44311" lon="2.68147">
        <ele>129.43</ele>
        <time>2014-01-14T12:12:42Z</time>
      </trkpt>
      <trkpt lat="48.44312" lon="2.68149">
        <ele>129.43</ele>
        <time>2014-01-14T12:12:43Z</time>
      </trkpt>
      <trkpt lat="48.44313" lon="2.68151">
        <ele>129.43</ele>
        <time>2014-01-14T12:12:44Z</time>
      </trkpt>
      <trkpt lat="48.44314" lon="2.68153">
        <ele>129.43</ele>
        <time>2014-01-14T12:12:45Z</time>
      </trkpt>
      <trkpt lat="48.44314" lon="2.68156">
        <ele>129.43</ele>
        <time>2014-01-14T12:12:46Z</time>
      </trkpt>
      <trkpt lat="48.44314" lon="2.68159">
        <ele>129.43</ele>
        <time>2014-01-14T12:12:47Z</time>
      </trkpt>
      <trkpt lat="48.44316" lon="2.68163">
        <ele>127.99</ele>
        <time>2014-01-14T12:12:48Z</time>
      </trkpt>
      <trkpt lat="48.44319" lon="2.68168">
        <ele>127.51</ele>
        <time>2014-01-14T12:12:49Z</time>
      </trkpt>
      <trkpt lat="48.44321" lon="2.68171">
        <ele>127.51</ele>
        <time>2014-01-14T12:12:50Z</time>
      </trkpt>
      <trkpt lat="48.44331" lon="2.68188">
        <ele>127.51</ele>
        <time>2014-01-14T12:12:56Z</time>
      </trkpt>
      <trkpt lat="48.44332" lon="2.68192">
        <ele>127.51</ele>
        <time>2014-01-14T12:12:57Z</time>
      </trkpt>
      <trkpt lat="48.44334" lon="2.68195">
        <ele>127.51</ele>
        <time>2014-01-14T12:12:58Z</time>
      </trkpt>
      <trkpt lat="48.44336" lon="2.68199">
        <ele>127.51</ele>
        <time>2014-01-14T12:12:59Z</time>
      </trkpt>
      <trkpt lat="48.44342" lon="2.68206">
        <ele>127.51</ele>
        <time>2014-01-14T12:13:01Z</time>
      </trkpt>
      <trkpt lat="48.44345" lon="2.68209">
        <ele>127.03</ele>
        <time>2014-01-14T12:13:02Z</time>
      </trkpt>
      <trkpt lat="48.44346" lon="2.68213">
        <ele>126.55</ele>
        <time>2014-01-14T12:13:03Z</time>
      </trkpt>
      <trkpt lat="48.44347" lon="2.68216">
        <ele>126.55</ele>
        <time>2014-01-14T12:13:04Z</time>
      </trkpt>
      <trkpt lat="48.44346" lon="2.68219">
        <ele>126.55</ele>
        <time>2014-01-14T12:13:05Z</time>
      </trkpt>
      <trkpt lat="48.44347" lon="2.68223">
        <ele>126.07</ele>
        <time>2014-01-14T12:13:06Z</time>
      </trkpt>
      <trkpt lat="48.44349" lon="2.68227">
        <ele>126.07</ele>
        <time>2014-01-14T12:13:07Z</time>
      </trkpt>
      <trkpt lat="48.4435" lon="2.68231">
        <ele>126.07</ele>
        <time>2014-01-14T12:13:08Z</time>
      </trkpt>
      <trkpt lat="48.44355" lon="2.68243">
        <ele>126.07</ele>
        <time>2014-01-14T12:13:12Z</time>
      </trkpt>
      <trkpt lat="48.44363" lon="2.68244">
        <ele>125.59</ele>
        <time>2014-01-14T12:13:19Z</time>
      </trkpt>
      <trkpt lat="48.44369" lon="2.68241">
        <ele>125.59</ele>
        <time>2014-01-14T12:13:23Z</time>
      </trkpt>
      <trkpt lat="48.44379" lon="2.6824">
        <ele>126.55</ele>
        <time>2014-01-14T12:13:28Z</time>
      </trkpt>
      <trkpt lat="48.44389" lon="2.68238">
        <ele>126.55</ele>
        <time>2014-01-14T12:13:33Z</time>
      </trkpt>
      <trkpt lat="48.44395" lon="2.68235">
        <ele>126.55</ele>
        <time>2014-01-14T12:13:36Z</time>
      </trkpt>
      <trkpt lat="48.44415" lon="2.68221">
        <ele>126.55</ele>
        <time>2014-01-14T12:13:44Z</time>
      </trkpt>
      <trkpt lat="48.44416" lon="2.68218">
        <ele>126.55</ele>
        <time>2014-01-14T12:13:45Z</time>
      </trkpt>
      <trkpt lat="48.44417" lon="2.68213">
        <ele>126.55</ele>
        <time>2014-01-14T12:13:46Z</time>
      </trkpt>
      <trkpt lat="48.44425" lon="2.68163">
        <ele>127.99</ele>
        <time>2014-01-14T12:13:57Z</time>
      </trkpt>
      <trkpt lat="48.44437" lon="2.68116">
        <ele>127.03</ele>
        <time>2014-01-14T12:14:06Z</time>
      </trkpt>
      <trkpt lat="48.44441" lon="2.68103">
        <ele>126.55</ele>
        <time>2014-01-14T12:14:09Z</time>
      </trkpt>
      <trkpt lat="48.44442" lon="2.68096">
        <ele>126.55</ele>
        <time>2014-01-14T12:14:10Z</time>
      </trkpt>
      <trkpt lat="48.44443" lon="2.68091">
        <ele>126.55</ele>
        <time>2014-01-14T12:14:11Z</time>
      </trkpt>
      <trkpt lat="48.44445" lon="2.68088">
        <ele>127.99</ele>
        <time>2014-01-14T12:14:12Z</time>
      </trkpt>
      <trkpt lat="48.44446" lon="2.68085">
        <ele>128.47</ele>
        <time>2014-01-14T12:14:13Z</time>
      </trkpt>
      <trkpt lat="48.44447" lon="2.68083">
        <ele>128.95</ele>
        <time>2014-01-14T12:14:14Z</time>
      </trkpt>
      <trkpt lat="48.44447" lon="2.68081">
        <ele>128.95</ele>
        <time>2014-01-14T12:14:15Z</time>
      </trkpt>
      <trkpt lat="48.44463" lon="2.68059">
        <ele>127.99</ele>
        <time>2014-01-14T12:14:24Z</time>
      </trkpt>
      <trkpt lat="48.44481" lon="2.68028">
        <ele>127.99</ele>
        <time>2014-01-14T12:14:32Z</time>
      </trkpt>
      <trkpt lat="48.44499" lon="2.68017">
        <ele>127.99</ele>
        <time>2014-01-14T12:14:37Z</time>
      </trkpt>
      <trkpt lat="48.44502" lon="2.68017">
        <ele>127.99</ele>
        <time>2014-01-14T12:14:38Z</time>
      </trkpt>
      <trkpt lat="48.44504" lon="2.68017">
        <ele>127.99</ele>
        <time>2014-01-14T12:14:39Z</time>
      </trkpt>
      <trkpt lat="48.44511" lon="2.68015">
        <ele>129.43</ele>
        <time>2014-01-14T12:14:49Z</time>
      </trkpt>
      <trkpt lat="48.44514" lon="2.68015">
        <ele>129.43</ele>
        <time>2014-01-14T12:14:51Z</time>
      </trkpt>
      <trkpt lat="48.44516" lon="2.68015">
        <ele>129.43</ele>
        <time>2014-01-14T12:14:52Z</time>
      </trkpt>
      <trkpt lat="48.44518" lon="2.68015">
        <ele>129.43</ele>
        <time>2014-01-14T12:14:53Z</time>
      </trkpt>
      <trkpt lat="48.4452" lon="2.68015">
        <ele>129.43</ele>
        <time>2014-01-14T12:14:54Z</time>
      </trkpt>
      <trkpt lat="48.44522" lon="2.68016">
        <ele>129.43</ele>
        <time>2014-01-14T12:14:55Z</time>
      </trkpt>
      <trkpt lat="48.44524" lon="2.68016">
        <ele>129.43</ele>
        <time>2014-01-14T12:14:56Z</time>
      </trkpt>
      <trkpt lat="48.44526" lon="2.68016">
        <ele>129.43</ele>
        <time>2014-01-14T12:14:57Z</time>
      </trkpt>
      <trkpt lat="48.44528" lon="2.68016">
        <ele>129.92</ele>
        <time>2014-01-14T12:14:58Z</time>
      </trkpt>
      <trkpt lat="48.4453" lon="2.68018">
        <ele>129.92</ele>
        <time>2014-01-14T12:14:59Z</time>
      </trkpt>
      <trkpt lat="48.44532" lon="2.68019">
        <ele>129.92</ele>
        <time>2014-01-14T12:15:00Z</time>
      </trkpt>
      <trkpt lat="48.44534" lon="2.6802">
        <ele>129.92</ele>
        <time>2014-01-14T12:15:01Z</time>
      </trkpt>
      <trkpt lat="48.44536" lon="2.68021">
        <ele>129.92</ele>
        <time>2014-01-14T12:15:02Z</time>
      </trkpt>
      <trkpt lat="48.44539" lon="2.68022">
        <ele>129.92</ele>
        <time>2014-01-14T12:15:03Z</time>
      </trkpt>
      <trkpt lat="48.44549" lon="2.68026">
        <ele>129.92</ele>
        <time>2014-01-14T12:15:12Z</time>
      </trkpt>
      <trkpt lat="48.44558" lon="2.68027">
        <ele>129.92</ele>
        <time>2014-01-14T12:15:15Z</time>
      </trkpt>
      <trkpt lat="48.44562" lon="2.68025">
        <ele>129.92</ele>
        <time>2014-01-14T12:15:16Z</time>
      </trkpt>
      <trkpt lat="48.44565" lon="2.68023">
        <ele>129.92</ele>
        <time>2014-01-14T12:15:17Z</time>
      </trkpt>
      <trkpt lat="48.44568" lon="2.68023">
        <ele>129.92</ele>
        <time>2014-01-14T12:15:18Z</time>
      </trkpt>
      <trkpt lat="48.44571" lon="2.68023">
        <ele>129.92</ele>
        <time>2014-01-14T12:15:19Z</time>
      </trkpt>
      <trkpt lat="48.44575" lon="2.68022">
        <ele>129.92</ele>
        <time>2014-01-14T12:15:20Z</time>
      </trkpt>
      <trkpt lat="48.44579" lon="2.6802">
        <ele>129.92</ele>
        <time>2014-01-14T12:15:21Z</time>
      </trkpt>
      <trkpt lat="48.44583" lon="2.6802">
        <ele>129.92</ele>
        <time>2014-01-14T12:15:22Z</time>
      </trkpt>
      <trkpt lat="48.44587" lon="2.68019">
        <ele>129.92</ele>
        <time>2014-01-14T12:15:23Z</time>
      </trkpt>
      <trkpt lat="48.44621" lon="2.6802">
        <ele>128.47</ele>
        <time>2014-01-14T12:15:31Z</time>
      </trkpt>
      <trkpt lat="48.44626" lon="2.6802">
        <ele>128.47</ele>
        <time>2014-01-14T12:15:32Z</time>
      </trkpt>
      <trkpt lat="48.44657" lon="2.68032">
        <ele>124.63</ele>
        <time>2014-01-14T12:15:39Z</time>
      </trkpt>
      <trkpt lat="48.44676" lon="2.68046">
        <ele>121.26</ele>
        <time>2014-01-14T12:15:42Z</time>
      </trkpt>
      <trkpt lat="48.44695" lon="2.68058">
        <ele>118.86</ele>
        <time>2014-01-14T12:15:45Z</time>
      </trkpt>
      <trkpt lat="48.44703" lon="2.68061">
        <ele>117.9</ele>
        <time>2014-01-14T12:15:46Z</time>
      </trkpt>
      <trkpt lat="48.44737" lon="2.68069">
        <ele>114.05</ele>
        <time>2014-01-14T12:15:50Z</time>
      </trkpt>
      <trkpt lat="48.44772" lon="2.68084">
        <ele>110.21</ele>
        <time>2014-01-14T12:15:54Z</time>
      </trkpt>
      <trkpt lat="48.44809" lon="2.68105">
        <ele>106.84</ele>
        <time>2014-01-14T12:15:58Z</time>
      </trkpt>
      <trkpt lat="48.4485" lon="2.68119">
        <ele>103</ele>
        <time>2014-01-14T12:16:02Z</time>
      </trkpt>
      <trkpt lat="48.44891" lon="2.68133">
        <ele>100.11</ele>
        <time>2014-01-14T12:16:06Z</time>
      </trkpt>
      <trkpt lat="48.44913" lon="2.6814">
        <ele>98.67</ele>
        <time>2014-01-14T12:16:09Z</time>
      </trkpt>
      <trkpt lat="48.44924" lon="2.6814">
        <ele>97.71</ele>
        <time>2014-01-14T12:16:13Z</time>
      </trkpt>
      <trkpt lat="48.44925" lon="2.68139">
        <ele>97.23</ele>
        <time>2014-01-14T12:16:14Z</time>
      </trkpt>
      <trkpt lat="48.44926" lon="2.68136">
        <ele>97.23</ele>
        <time>2014-01-14T12:16:15Z</time>
      </trkpt>
      <trkpt lat="48.44926" lon="2.68131">
        <ele>97.23</ele>
        <time>2014-01-14T12:16:16Z</time>
      </trkpt>
      <trkpt lat="48.44926" lon="2.68124">
        <ele>96.75</ele>
        <time>2014-01-14T12:16:17Z</time>
      </trkpt>
      <trkpt lat="48.44926" lon="2.68115">
        <ele>96.27</ele>
        <time>2014-01-14T12:16:18Z</time>
      </trkpt>
      <trkpt lat="48.44926" lon="2.68107">
        <ele>95.79</ele>
        <time>2014-01-14T12:16:19Z</time>
      </trkpt>
      <trkpt lat="48.44926" lon="2.68088">
        <ele>93.87</ele>
        <time>2014-01-14T12:16:21Z</time>
      </trkpt>
      <trkpt lat="48.44926" lon="2.68078">
        <ele>93.87</ele>
        <time>2014-01-14T12:16:22Z</time>
      </trkpt>
      <trkpt lat="48.44929" lon="2.68006">
        <ele>97.23</ele>
        <time>2014-01-14T12:16:32Z</time>
      </trkpt>
      <trkpt lat="48.44935" lon="2.67993">
        <ele>97.23</ele>
        <time>2014-01-14T12:16:35Z</time>
      </trkpt>
      <trkpt lat="48.44946" lon="2.67985">
        <ele>97.23</ele>
        <time>2014-01-14T12:16:38Z</time>
      </trkpt>
      <trkpt lat="48.4495" lon="2.67983">
        <ele>97.23</ele>
        <time>2014-01-14T12:16:39Z</time>
      </trkpt>
      <trkpt lat="48.44954" lon="2.67981">
        <ele>97.23</ele>
        <time>2014-01-14T12:16:40Z</time>
      </trkpt>
      <trkpt lat="48.44969" lon="2.67974">
        <ele>97.23</ele>
        <time>2014-01-14T12:16:44Z</time>
      </trkpt>
      <trkpt lat="48.45002" lon="2.67957">
        <ele>97.23</ele>
        <time>2014-01-14T12:16:51Z</time>
      </trkpt>
      <trkpt lat="48.45006" lon="2.67954">
        <ele>97.23</ele>
        <time>2014-01-14T12:16:52Z</time>
      </trkpt>
      <trkpt lat="48.45048" lon="2.67933">
        <ele>99.15</ele>
        <time>2014-01-14T12:17:03Z</time>
      </trkpt>
      <trkpt lat="48.45083" lon="2.67919">
        <ele>101.56</ele>
        <time>2014-01-14T12:17:13Z</time>
      </trkpt>
      <trkpt lat="48.45122" lon="2.67941">
        <ele>100.11</ele>
        <time>2014-01-14T12:17:23Z</time>
      </trkpt>
      <trkpt lat="48.45127" lon="2.67941">
        <ele>99.63</ele>
        <time>2014-01-14T12:17:24Z</time>
      </trkpt>
      <trkpt lat="48.45132" lon="2.67938">
        <ele>99.63</ele>
        <time>2014-01-14T12:17:25Z</time>
      </trkpt>
      <trkpt lat="48.45145" lon="2.67925">
        <ele>97.23</ele>
        <time>2014-01-14T12:17:28Z</time>
      </trkpt>
      <trkpt lat="48.4515" lon="2.67919">
        <ele>95.79</ele>
        <time>2014-01-14T12:17:29Z</time>
      </trkpt>
      <trkpt lat="48.45166" lon="2.67898">
        <ele>93.87</ele>
        <time>2014-01-14T12:17:32Z</time>
      </trkpt>
      <trkpt lat="48.45175" lon="2.67885">
        <ele>91.94</ele>
        <time>2014-01-14T12:17:34Z</time>
      </trkpt>
      <trkpt lat="48.45179" lon="2.67877">
        <ele>91.94</ele>
        <time>2014-01-14T12:17:35Z</time>
      </trkpt>
      <trkpt lat="48.45188" lon="2.67854">
        <ele>90.98</ele>
        <time>2014-01-14T12:17:38Z</time>
      </trkpt>
      <trkpt lat="48.45203" lon="2.67801">
        <ele>92.42</ele>
        <time>2014-01-14T12:17:46Z</time>
      </trkpt>
      <trkpt lat="48.45213" lon="2.6776">
        <ele>95.79</ele>
        <time>2014-01-14T12:17:55Z</time>
      </trkpt>
      <trkpt lat="48.45208" lon="2.67715">
        <ele>97.71</ele>
        <time>2014-01-14T12:18:08Z</time>
      </trkpt>
      <trkpt lat="48.45198" lon="2.67652">
        <ele>98.19</ele>
        <time>2014-01-14T12:18:23Z</time>
      </trkpt>
      <trkpt lat="48.45191" lon="2.67604">
        <ele>101.56</ele>
        <time>2014-01-14T12:18:37Z</time>
      </trkpt>
      <trkpt lat="48.45187" lon="2.6758">
        <ele>104.44</ele>
        <time>2014-01-14T12:18:45Z</time>
      </trkpt>
      <trkpt lat="48.45181" lon="2.67546">
        <ele>106.84</ele>
        <time>2014-01-14T12:18:59Z</time>
      </trkpt>
      <trkpt lat="48.45177" lon="2.6751">
        <ele>106.84</ele>
        <time>2014-01-14T12:19:11Z</time>
      </trkpt>
      <trkpt lat="48.45178" lon="2.67509">
        <ele>106.84</ele>
        <time>2014-01-14T12:19:12Z</time>
      </trkpt>
      <trkpt lat="48.4518" lon="2.67509">
        <ele>106.84</ele>
        <time>2014-01-14T12:19:13Z</time>
      </trkpt>
      <trkpt lat="48.45182" lon="2.67512">
        <ele>106.84</ele>
        <time>2014-01-14T12:19:14Z</time>
      </trkpt>
      <trkpt lat="48.45183" lon="2.67516">
        <ele>106.84</ele>
        <time>2014-01-14T12:19:15Z</time>
      </trkpt>
      <trkpt lat="48.45184" lon="2.6752">
        <ele>106.84</ele>
        <time>2014-01-14T12:19:16Z</time>
      </trkpt>
      <trkpt lat="48.45193" lon="2.67544">
        <ele>105.4</ele>
        <time>2014-01-14T12:19:22Z</time>
      </trkpt>
      <trkpt lat="48.45195" lon="2.67546">
        <ele>104.92</ele>
        <time>2014-01-14T12:19:35Z</time>
      </trkpt>
      <trkpt lat="48.45195" lon="2.67547">
        <ele>104.92</ele>
        <time>2014-01-14T12:20:03Z</time>
      </trkpt>
      <trkpt lat="48.45203" lon="2.67567">
        <ele>104.44</ele>
        <time>2014-01-14T12:20:21Z</time>
      </trkpt>
      <trkpt lat="48.45211" lon="2.67587">
        <ele>103.48</ele>
        <time>2014-01-14T12:20:25Z</time>
      </trkpt>
      <trkpt lat="48.45225" lon="2.67625">
        <ele>99.63</ele>
        <time>2014-01-14T12:20:30Z</time>
      </trkpt>
      <trkpt lat="48.45238" lon="2.67659">
        <ele>96.27</ele>
        <time>2014-01-14T12:20:33Z</time>
      </trkpt>
      <trkpt lat="48.45255" lon="2.67699">
        <ele>92.9</ele>
        <time>2014-01-14T12:20:36Z</time>
      </trkpt>
      <trkpt lat="48.45281" lon="2.67765">
        <ele>89.54</ele>
        <time>2014-01-14T12:20:41Z</time>
      </trkpt>
      <trkpt lat="48.45286" lon="2.67777">
        <ele>89.54</ele>
        <time>2014-01-14T12:20:42Z</time>
      </trkpt>
      <trkpt lat="48.45334" lon="2.67897">
        <ele>86.66</ele>
        <time>2014-01-14T12:20:54Z</time>
      </trkpt>
      <trkpt lat="48.45372" lon="2.67995">
        <ele>84.25</ele>
        <time>2014-01-14T12:21:06Z</time>
      </trkpt>
      <trkpt lat="48.45384" lon="2.68023">
        <ele>84.25</ele>
        <time>2014-01-14T12:21:10Z</time>
      </trkpt>
      <trkpt lat="48.45387" lon="2.68028">
        <ele>84.25</ele>
        <time>2014-01-14T12:21:11Z</time>
      </trkpt>
      <trkpt lat="48.45389" lon="2.68033">
        <ele>84.25</ele>
        <time>2014-01-14T12:21:12Z</time>
      </trkpt>
      <trkpt lat="48.45393" lon="2.68044">
        <ele>83.77</ele>
        <time>2014-01-14T12:21:15Z</time>
      </trkpt>
      <trkpt lat="48.45393" lon="2.68046">
        <ele>83.77</ele>
        <time>2014-01-14T12:21:16Z</time>
      </trkpt>
      <trkpt lat="48.45391" lon="2.68047">
        <ele>83.77</ele>
        <time>2014-01-14T12:21:17Z</time>
      </trkpt>
      <trkpt lat="48.4539" lon="2.68047">
        <ele>83.77</ele>
        <time>2014-01-14T12:21:18Z</time>
      </trkpt>
      <trkpt lat="48.45389" lon="2.68041">
        <ele>83.77</ele>
        <time>2014-01-14T12:21:21Z</time>
      </trkpt>
      <trkpt lat="48.4539" lon="2.68038">
        <ele>83.77</ele>
        <time>2014-01-14T12:21:22Z</time>
      </trkpt>
      <trkpt lat="48.45403" lon="2.67991">
        <ele>83.77</ele>
        <time>2014-01-14T12:21:32Z</time>
      </trkpt>
      <trkpt lat="48.45414" lon="2.6795">
        <ele>85.21</ele>
        <time>2014-01-14T12:21:41Z</time>
      </trkpt>
      <trkpt lat="48.45435" lon="2.67884">
        <ele>86.66</ele>
        <time>2014-01-14T12:21:53Z</time>
      </trkpt>
      <trkpt lat="48.45457" lon="2.67826">
        <ele>88.58</ele>
        <time>2014-01-14T12:22:03Z</time>
      </trkpt>
      <trkpt lat="48.45475" lon="2.67775">
        <ele>88.1</ele>
        <time>2014-01-14T12:22:11Z</time>
      </trkpt>
      <trkpt lat="48.45489" lon="2.67721">
        <ele>88.1</ele>
        <time>2014-01-14T12:22:22Z</time>
      </trkpt>
      <trkpt lat="48.45503" lon="2.67669">
        <ele>90.02</ele>
        <time>2014-01-14T12:22:34Z</time>
      </trkpt>
      <trkpt lat="48.45515" lon="2.67634">
        <ele>91.46</ele>
        <time>2014-01-14T12:22:42Z</time>
      </trkpt>
      <trkpt lat="48.45519" lon="2.67626">
        <ele>92.42</ele>
        <time>2014-01-14T12:22:43Z</time>
      </trkpt>
      <trkpt lat="48.45521" lon="2.67621">
        <ele>92.42</ele>
        <time>2014-01-14T12:22:44Z</time>
      </trkpt>
      <trkpt lat="48.45533" lon="2.67591">
        <ele>92.42</ele>
        <time>2014-01-14T12:22:50Z</time>
      </trkpt>
      <trkpt lat="48.45545" lon="2.67557">
        <ele>89.54</ele>
        <time>2014-01-14T12:22:55Z</time>
      </trkpt>
      <trkpt lat="48.4555" lon="2.67543">
        <ele>89.54</ele>
        <time>2014-01-14T12:22:57Z</time>
      </trkpt>
      <trkpt lat="48.45559" lon="2.67514">
        <ele>88.1</ele>
        <time>2014-01-14T12:23:01Z</time>
      </trkpt>
      <trkpt lat="48.45562" lon="2.67506">
        <ele>88.1</ele>
        <time>2014-01-14T12:23:02Z</time>
      </trkpt>
      <trkpt lat="48.45565" lon="2.67499">
        <ele>87.62</ele>
        <time>2014-01-14T12:23:03Z</time>
      </trkpt>
      <trkpt lat="48.45573" lon="2.67474">
        <ele>87.62</ele>
        <time>2014-01-14T12:23:07Z</time>
      </trkpt>
      <trkpt lat="48.45575" lon="2.67468">
        <ele>87.62</ele>
        <time>2014-01-14T12:23:08Z</time>
      </trkpt>
      <trkpt lat="48.45577" lon="2.67461">
        <ele>87.62</ele>
        <time>2014-01-14T12:23:09Z</time>
      </trkpt>
      <trkpt lat="48.45592" lon="2.67413">
        <ele>89.06</ele>
        <time>2014-01-14T12:23:17Z</time>
      </trkpt>
      <trkpt lat="48.45596" lon="2.674">
        <ele>89.06</ele>
        <time>2014-01-14T12:23:19Z</time>
      </trkpt>
      <trkpt lat="48.45627" lon="2.67304">
        <ele>87.62</ele>
        <time>2014-01-14T12:23:33Z</time>
      </trkpt>
      <trkpt lat="48.45629" lon="2.67297">
        <ele>87.14</ele>
        <time>2014-01-14T12:23:34Z</time>
      </trkpt>
      <trkpt lat="48.45639" lon="2.67268">
        <ele>86.18</ele>
        <time>2014-01-14T12:23:38Z</time>
      </trkpt>
      <trkpt lat="48.45642" lon="2.67261">
        <ele>86.18</ele>
        <time>2014-01-14T12:23:39Z</time>
      </trkpt>
      <trkpt lat="48.45671" lon="2.67172">
        <ele>85.69</ele>
        <time>2014-01-14T12:23:53Z</time>
      </trkpt>
      <trkpt lat="48.45689" lon="2.67113">
        <ele>85.69</ele>
        <time>2014-01-14T12:24:04Z</time>
      </trkpt>
      <trkpt lat="48.45704" lon="2.67063">
        <ele>88.1</ele>
        <time>2014-01-14T12:24:12Z</time>
      </trkpt>
      <trkpt lat="48.45706" lon="2.67057">
        <ele>88.1</ele>
        <time>2014-01-14T12:24:13Z</time>
      </trkpt>
      <trkpt lat="48.45707" lon="2.67053">
        <ele>88.58</ele>
        <time>2014-01-14T12:24:14Z</time>
      </trkpt>
      <trkpt lat="48.45708" lon="2.67049">
        <ele>89.06</ele>
        <time>2014-01-14T12:24:15Z</time>
      </trkpt>
      <trkpt lat="48.45709" lon="2.67046">
        <ele>89.06</ele>
        <time>2014-01-14T12:24:16Z</time>
      </trkpt>
      <trkpt lat="48.45711" lon="2.67043">
        <ele>89.06</ele>
        <time>2014-01-14T12:24:17Z</time>
      </trkpt>
      <trkpt lat="48.45717" lon="2.67033">
        <ele>90.02</ele>
        <time>2014-01-14T12:24:22Z</time>
      </trkpt>
      <trkpt lat="48.45717" lon="2.67031">
        <ele>90.02</ele>
        <time>2014-01-14T12:24:23Z</time>
      </trkpt>
      <trkpt lat="48.45718" lon="2.67029">
        <ele>90.02</ele>
        <time>2014-01-14T12:24:24Z</time>
      </trkpt>
      <trkpt lat="48.45719" lon="2.67028">
        <ele>90.02</ele>
        <time>2014-01-14T12:24:25Z</time>
      </trkpt>
      <trkpt lat="48.45721" lon="2.67027">
        <ele>90.02</ele>
        <time>2014-01-14T12:24:26Z</time>
      </trkpt>
      <trkpt lat="48.45723" lon="2.67025">
        <ele>90.02</ele>
        <time>2014-01-14T12:24:27Z</time>
      </trkpt>
      <trkpt lat="48.45724" lon="2.67024">
        <ele>90.02</ele>
        <time>2014-01-14T12:24:28Z</time>
      </trkpt>
      <trkpt lat="48.45726" lon="2.67023">
        <ele>90.02</ele>
        <time>2014-01-14T12:24:29Z</time>
      </trkpt>
      <trkpt lat="48.45738" lon="2.67014">
        <ele>90.02</ele>
        <time>2014-01-14T12:24:41Z</time>
      </trkpt>
      <trkpt lat="48.4574" lon="2.67013">
        <ele>89.06</ele>
        <time>2014-01-14T12:24:42Z</time>
      </trkpt>
      <trkpt lat="48.45741" lon="2.67011">
        <ele>89.06</ele>
        <time>2014-01-14T12:24:43Z</time>
      </trkpt>
      <trkpt lat="48.45742" lon="2.67009">
        <ele>89.06</ele>
        <time>2014-01-14T12:24:44Z</time>
      </trkpt>
      <trkpt lat="48.45741" lon="2.67003">
        <ele>89.06</ele>
        <time>2014-01-14T12:24:46Z</time>
      </trkpt>
      <trkpt lat="48.45738" lon="2.67001">
        <ele>89.06</ele>
        <time>2014-01-14T12:24:47Z</time>
      </trkpt>
      <trkpt lat="48.45736" lon="2.67">
        <ele>89.06</ele>
        <time>2014-01-14T12:24:48Z</time>
      </trkpt>
      <trkpt lat="48.45733" lon="2.66997">
        <ele>89.06</ele>
        <time>2014-01-14T12:24:49Z</time>
      </trkpt>
      <trkpt lat="48.45729" lon="2.66992">
        <ele>89.06</ele>
        <time>2014-01-14T12:24:51Z</time>
      </trkpt>
      <trkpt lat="48.45729" lon="2.66988">
        <ele>89.06</ele>
        <time>2014-01-14T12:24:52Z</time>
      </trkpt>
      <trkpt lat="48.45729" lon="2.66984">
        <ele>89.06</ele>
        <time>2014-01-14T12:24:53Z</time>
      </trkpt>
      <trkpt lat="48.4573" lon="2.6698">
        <ele>89.06</ele>
        <time>2014-01-14T12:24:54Z</time>
      </trkpt>
      <trkpt lat="48.45733" lon="2.66975">
        <ele>89.06</ele>
        <time>2014-01-14T12:24:55Z</time>
      </trkpt>
      <trkpt lat="48.45735" lon="2.6697">
        <ele>89.06</ele>
        <time>2014-01-14T12:24:56Z</time>
      </trkpt>
      <trkpt lat="48.45737" lon="2.66965">
        <ele>89.06</ele>
        <time>2014-01-14T12:24:57Z</time>
      </trkpt>
      <trkpt lat="48.45753" lon="2.66913">
        <ele>90.5</ele>
        <time>2014-01-14T12:25:08Z</time>
      </trkpt>
      <trkpt lat="48.45771" lon="2.66855">
        <ele>90.98</ele>
        <time>2014-01-14T12:25:22Z</time>
      </trkpt>
      <trkpt lat="48.45776" lon="2.66842">
        <ele>90.98</ele>
        <time>2014-01-14T12:25:25Z</time>
      </trkpt>
      <trkpt lat="48.45779" lon="2.66839">
        <ele>90.98</ele>
        <time>2014-01-14T12:25:26Z</time>
      </trkpt>
      <trkpt lat="48.4581" lon="2.6682">
        <ele>91.46</ele>
        <time>2014-01-14T12:25:36Z</time>
      </trkpt>
      <trkpt lat="48.45843" lon="2.66801">
        <ele>90.02</ele>
        <time>2014-01-14T12:25:45Z</time>
      </trkpt>
      <trkpt lat="48.45867" lon="2.66784">
        <ele>88.58</ele>
        <time>2014-01-14T12:25:51Z</time>
      </trkpt>
      <trkpt lat="48.45887" lon="2.66765">
        <ele>87.62</ele>
        <time>2014-01-14T12:25:56Z</time>
      </trkpt>
      <trkpt lat="48.45891" lon="2.66761">
        <ele>87.14</ele>
        <time>2014-01-14T12:25:57Z</time>
      </trkpt>
      <trkpt lat="48.45895" lon="2.66757">
        <ele>86.66</ele>
        <time>2014-01-14T12:25:58Z</time>
      </trkpt>
      <trkpt lat="48.45915" lon="2.66745">
        <ele>85.69</ele>
        <time>2014-01-14T12:26:01Z</time>
      </trkpt>
      <trkpt lat="48.45927" lon="2.66739">
        <ele>85.69</ele>
        <time>2014-01-14T12:26:03Z</time>
      </trkpt>
      <trkpt lat="48.45934" lon="2.66736">
        <ele>85.21</ele>
        <time>2014-01-14T12:26:04Z</time>
      </trkpt>
      <trkpt lat="48.4594" lon="2.66735">
        <ele>85.21</ele>
        <time>2014-01-14T12:26:05Z</time>
      </trkpt>
      <trkpt lat="48.45946" lon="2.66735">
        <ele>84.25</ele>
        <time>2014-01-14T12:26:06Z</time>
      </trkpt>
      <trkpt lat="48.45952" lon="2.66735">
        <ele>84.25</ele>
        <time>2014-01-14T12:26:07Z</time>
      </trkpt>
      <trkpt lat="48.45956" lon="2.66735">
        <ele>84.73</ele>
        <time>2014-01-14T12:26:08Z</time>
      </trkpt>
      <trkpt lat="48.45962" lon="2.66734">
        <ele>84.73</ele>
        <time>2014-01-14T12:26:09Z</time>
      </trkpt>
      <trkpt lat="48.45972" lon="2.66732">
        <ele>84.25</ele>
        <time>2014-01-14T12:26:11Z</time>
      </trkpt>
      <trkpt lat="48.45995" lon="2.66723">
        <ele>83.29</ele>
        <time>2014-01-14T12:26:16Z</time>
      </trkpt>
      <trkpt lat="48.46001" lon="2.6672">
        <ele>82.81</ele>
        <time>2014-01-14T12:26:17Z</time>
      </trkpt>
      <trkpt lat="48.46017" lon="2.66713">
        <ele>82.33</ele>
        <time>2014-01-14T12:26:20Z</time>
      </trkpt>
      <trkpt lat="48.46022" lon="2.66711">
        <ele>81.85</ele>
        <time>2014-01-14T12:26:21Z</time>
      </trkpt>
      <trkpt lat="48.46082" lon="2.66679">
        <ele>80.41</ele>
        <time>2014-01-14T12:26:34Z</time>
      </trkpt>
      <trkpt lat="48.46094" lon="2.66672">
        <ele>80.41</ele>
        <time>2014-01-14T12:26:37Z</time>
      </trkpt>
      <trkpt lat="48.46098" lon="2.66669">
        <ele>80.41</ele>
        <time>2014-01-14T12:26:38Z</time>
      </trkpt>
      <trkpt lat="48.46164" lon="2.66634">
        <ele>79.45</ele>
        <time>2014-01-14T12:26:52Z</time>
      </trkpt>
      <trkpt lat="48.46247" lon="2.66591">
        <ele>78</ele>
        <time>2014-01-14T12:27:08Z</time>
      </trkpt>
      <trkpt lat="48.46265" lon="2.66582">
        <ele>78</ele>
        <time>2014-01-14T12:27:12Z</time>
      </trkpt>
      <trkpt lat="48.4627" lon="2.66581">
        <ele>78</ele>
        <time>2014-01-14T12:27:13Z</time>
      </trkpt>
      <trkpt lat="48.46294" lon="2.66574">
        <ele>77.52</ele>
        <time>2014-01-14T12:27:18Z</time>
      </trkpt>
      <trkpt lat="48.46297" lon="2.66569">
        <ele>77.52</ele>
        <time>2014-01-14T12:27:19Z</time>
      </trkpt>
      <trkpt lat="48.463" lon="2.66565">
        <ele>77.52</ele>
        <time>2014-01-14T12:27:20Z</time>
      </trkpt>
      <trkpt lat="48.46301" lon="2.66562">
        <ele>77.52</ele>
        <time>2014-01-14T12:27:21Z</time>
      </trkpt>
      <trkpt lat="48.46301" lon="2.66558">
        <ele>77.52</ele>
        <time>2014-01-14T12:27:22Z</time>
      </trkpt>
      <trkpt lat="48.46301" lon="2.66555">
        <ele>77.52</ele>
        <time>2014-01-14T12:27:23Z</time>
      </trkpt>
      <trkpt lat="48.46302" lon="2.66553">
        <ele>77.52</ele>
        <time>2014-01-14T12:27:24Z</time>
      </trkpt>
      <trkpt lat="48.46305" lon="2.66552">
        <ele>77.52</ele>
        <time>2014-01-14T12:27:26Z</time>
      </trkpt>
      <trkpt lat="48.46308" lon="2.66552">
        <ele>77.04</ele>
        <time>2014-01-14T12:27:27Z</time>
      </trkpt>
      <trkpt lat="48.46312" lon="2.66551">
        <ele>77.04</ele>
        <time>2014-01-14T12:27:28Z</time>
      </trkpt>
      <trkpt lat="48.46363" lon="2.66527">
        <ele>77.04</ele>
        <time>2014-01-14T12:27:40Z</time>
      </trkpt>
      <trkpt lat="48.46426" lon="2.66495">
        <ele>75.6</ele>
        <time>2014-01-14T12:27:52Z</time>
      </trkpt>
      <trkpt lat="48.46437" lon="2.66491">
        <ele>75.6</ele>
        <time>2014-01-14T12:27:54Z</time>
      </trkpt>
      <trkpt lat="48.46492" lon="2.66462">
        <ele>74.16</ele>
        <time>2014-01-14T12:28:04Z</time>
      </trkpt>
      <trkpt lat="48.46518" lon="2.66448">
        <ele>73.68</ele>
        <time>2014-01-14T12:28:09Z</time>
      </trkpt>
      <trkpt lat="48.46523" lon="2.66445">
        <ele>73.68</ele>
        <time>2014-01-14T12:28:10Z</time>
      </trkpt>
      <trkpt lat="48.46528" lon="2.66442">
        <ele>73.68</ele>
        <time>2014-01-14T12:28:11Z</time>
      </trkpt>
      <trkpt lat="48.4658" lon="2.66415">
        <ele>73.68</ele>
        <time>2014-01-14T12:28:21Z</time>
      </trkpt>
      <trkpt lat="48.46586" lon="2.66412">
        <ele>73.68</ele>
        <time>2014-01-14T12:28:22Z</time>
      </trkpt>
      <trkpt lat="48.46638" lon="2.66386">
        <ele>73.68</ele>
        <time>2014-01-14T12:28:33Z</time>
      </trkpt>
      <trkpt lat="48.46703" lon="2.66352">
        <ele>73.2</ele>
        <time>2014-01-14T12:28:46Z</time>
      </trkpt>
      <trkpt lat="48.46751" lon="2.66327">
        <ele>73.2</ele>
        <time>2014-01-14T12:28:57Z</time>
      </trkpt>
      <trkpt lat="48.46801" lon="2.663">
        <ele>73.2</ele>
        <time>2014-01-14T12:29:08Z</time>
      </trkpt>
      <trkpt lat="48.46806" lon="2.66298">
        <ele>73.2</ele>
        <time>2014-01-14T12:29:09Z</time>
      </trkpt>
      <trkpt lat="48.4681" lon="2.66296">
        <ele>73.2</ele>
        <time>2014-01-14T12:29:10Z</time>
      </trkpt>
      <trkpt lat="48.46833" lon="2.66285">
        <ele>73.2</ele>
        <time>2014-01-14T12:29:16Z</time>
      </trkpt>
      <trkpt lat="48.46838" lon="2.66283">
        <ele>73.2</ele>
        <time>2014-01-14T12:29:17Z</time>
      </trkpt>
      <trkpt lat="48.46873" lon="2.66265">
        <ele>73.2</ele>
        <time>2014-01-14T12:29:24Z</time>
      </trkpt>
      <trkpt lat="48.46879" lon="2.66263">
        <ele>73.2</ele>
        <time>2014-01-14T12:29:25Z</time>
      </trkpt>
      <trkpt lat="48.46884" lon="2.66261">
        <ele>73.2</ele>
        <time>2014-01-14T12:29:26Z</time>
      </trkpt>
      <trkpt lat="48.4689" lon="2.66258">
        <ele>73.2</ele>
        <time>2014-01-14T12:29:27Z</time>
      </trkpt>
      <trkpt lat="48.46895" lon="2.66255">
        <ele>73.2</ele>
        <time>2014-01-14T12:29:28Z</time>
      </trkpt>
      <trkpt lat="48.469" lon="2.66252">
        <ele>73.2</ele>
        <time>2014-01-14T12:29:29Z</time>
      </trkpt>
      <trkpt lat="48.46906" lon="2.66249">
        <ele>73.2</ele>
        <time>2014-01-14T12:29:30Z</time>
      </trkpt>
      <trkpt lat="48.46961" lon="2.66221">
        <ele>73.68</ele>
        <time>2014-01-14T12:29:41Z</time>
      </trkpt>
      <trkpt lat="48.46983" lon="2.66208">
        <ele>73.68</ele>
        <time>2014-01-14T12:29:46Z</time>
      </trkpt>
      <trkpt lat="48.46988" lon="2.66205">
        <ele>73.68</ele>
        <time>2014-01-14T12:29:47Z</time>
      </trkpt>
      <trkpt lat="48.47008" lon="2.66194">
        <ele>73.68</ele>
        <time>2014-01-14T12:29:51Z</time>
      </trkpt>
      <trkpt lat="48.47057" lon="2.66168">
        <ele>73.68</ele>
        <time>2014-01-14T12:30:02Z</time>
      </trkpt>
      <trkpt lat="48.47098" lon="2.66147">
        <ele>73.68</ele>
        <time>2014-01-14T12:30:11Z</time>
      </trkpt>
      <trkpt lat="48.47137" lon="2.66128">
        <ele>75.12</ele>
        <time>2014-01-14T12:30:21Z</time>
      </trkpt>
      <trkpt lat="48.4714" lon="2.66126">
        <ele>75.12</ele>
        <time>2014-01-14T12:30:22Z</time>
      </trkpt>
      <trkpt lat="48.47144" lon="2.66124">
        <ele>75.12</ele>
        <time>2014-01-14T12:30:23Z</time>
      </trkpt>
      <trkpt lat="48.47183" lon="2.66104">
        <ele>75.12</ele>
        <time>2014-01-14T12:30:32Z</time>
      </trkpt>
      <trkpt lat="48.47188" lon="2.661">
        <ele>75.12</ele>
        <time>2014-01-14T12:30:33Z</time>
      </trkpt>
      <trkpt lat="48.47208" lon="2.6609">
        <ele>75.12</ele>
        <time>2014-01-14T12:30:37Z</time>
      </trkpt>
      <trkpt lat="48.47223" lon="2.66086">
        <ele>75.12</ele>
        <time>2014-01-14T12:30:40Z</time>
      </trkpt>
      <trkpt lat="48.47227" lon="2.66086">
        <ele>75.12</ele>
        <time>2014-01-14T12:30:41Z</time>
      </trkpt>
      <trkpt lat="48.47231" lon="2.66087">
        <ele>75.6</ele>
        <time>2014-01-14T12:30:42Z</time>
      </trkpt>
      <trkpt lat="48.47282" lon="2.66093">
        <ele>76.08</ele>
        <time>2014-01-14T12:30:54Z</time>
      </trkpt>
      <trkpt lat="48.47331" lon="2.66099">
        <ele>76.56</ele>
        <time>2014-01-14T12:31:06Z</time>
      </trkpt>
      <trkpt lat="48.4739" lon="2.66105">
        <ele>75.12</ele>
        <time>2014-01-14T12:31:18Z</time>
      </trkpt>
      <trkpt lat="48.47425" lon="2.66109">
        <ele>75.12</ele>
        <time>2014-01-14T12:31:25Z</time>
      </trkpt>
      <trkpt lat="48.4743" lon="2.6611">
        <ele>75.12</ele>
        <time>2014-01-14T12:31:26Z</time>
      </trkpt>
      <trkpt lat="48.47474" lon="2.66118">
        <ele>75.6</ele>
        <time>2014-01-14T12:31:35Z</time>
      </trkpt>
      <trkpt lat="48.4748" lon="2.66118">
        <ele>75.6</ele>
        <time>2014-01-14T12:31:36Z</time>
      </trkpt>
      <trkpt lat="48.47494" lon="2.6612">
        <ele>75.6</ele>
        <time>2014-01-14T12:31:39Z</time>
      </trkpt>
      <trkpt lat="48.47499" lon="2.66121">
        <ele>75.6</ele>
        <time>2014-01-14T12:31:40Z</time>
      </trkpt>
      <trkpt lat="48.47547" lon="2.66127">
        <ele>75.6</ele>
        <time>2014-01-14T12:31:50Z</time>
      </trkpt>
      <trkpt lat="48.47613" lon="2.66134">
        <ele>75.6</ele>
        <time>2014-01-14T12:32:03Z</time>
      </trkpt>
      <trkpt lat="48.47639" lon="2.66139">
        <ele>75.6</ele>
        <time>2014-01-14T12:32:09Z</time>
      </trkpt>
      <trkpt lat="48.47643" lon="2.6614">
        <ele>75.6</ele>
        <time>2014-01-14T12:32:10Z</time>
      </trkpt>
      <trkpt lat="48.47648" lon="2.66141">
        <ele>75.6</ele>
        <time>2014-01-14T12:32:11Z</time>
      </trkpt>
      <trkpt lat="48.47653" lon="2.66141">
        <ele>75.6</ele>
        <time>2014-01-14T12:32:12Z</time>
      </trkpt>
      <trkpt lat="48.47658" lon="2.66141">
        <ele>75.6</ele>
        <time>2014-01-14T12:32:13Z</time>
      </trkpt>
      <trkpt lat="48.47673" lon="2.66142">
        <ele>75.6</ele>
        <time>2014-01-14T12:32:16Z</time>
      </trkpt>
      <trkpt lat="48.47677" lon="2.6614">
        <ele>75.6</ele>
        <time>2014-01-14T12:32:17Z</time>
      </trkpt>
      <trkpt lat="48.47681" lon="2.66135">
        <ele>75.6</ele>
        <time>2014-01-14T12:32:18Z</time>
      </trkpt>
      <trkpt lat="48.47684" lon="2.66129">
        <ele>75.6</ele>
        <time>2014-01-14T12:32:19Z</time>
      </trkpt>
      <trkpt lat="48.47686" lon="2.66122">
        <ele>75.6</ele>
        <time>2014-01-14T12:32:20Z</time>
      </trkpt>
      <trkpt lat="48.47688" lon="2.66115">
        <ele>75.6</ele>
        <time>2014-01-14T12:32:21Z</time>
      </trkpt>
      <trkpt lat="48.47697" lon="2.66075">
        <ele>75.6</ele>
        <time>2014-01-14T12:32:27Z</time>
      </trkpt>
      <trkpt lat="48.47699" lon="2.66069">
        <ele>75.6</ele>
        <time>2014-01-14T12:32:28Z</time>
      </trkpt>
      <trkpt lat="48.477" lon="2.66064">
        <ele>75.6</ele>
        <time>2014-01-14T12:32:29Z</time>
      </trkpt>
      <trkpt lat="48.47712" lon="2.66008">
        <ele>75.6</ele>
        <time>2014-01-14T12:32:38Z</time>
      </trkpt>
      <trkpt lat="48.47714" lon="2.66003">
        <ele>75.6</ele>
        <time>2014-01-14T12:32:39Z</time>
      </trkpt>
      <trkpt lat="48.47721" lon="2.65973">
        <ele>75.6</ele>
        <time>2014-01-14T12:32:44Z</time>
      </trkpt>
      <trkpt lat="48.47722" lon="2.65967">
        <ele>75.6</ele>
        <time>2014-01-14T12:32:45Z</time>
      </trkpt>
      <trkpt lat="48.47724" lon="2.6596">
        <ele>75.6</ele>
        <time>2014-01-14T12:32:46Z</time>
      </trkpt>
      <trkpt lat="48.47745" lon="2.6587">
        <ele>75.6</ele>
        <time>2014-01-14T12:32:59Z</time>
      </trkpt>
      <trkpt lat="48.47758" lon="2.65812">
        <ele>75.6</ele>
        <time>2014-01-14T12:33:08Z</time>
      </trkpt>
      <trkpt lat="48.47771" lon="2.65754">
        <ele>75.6</ele>
        <time>2014-01-14T12:33:17Z</time>
      </trkpt>
      <trkpt lat="48.47772" lon="2.65748">
        <ele>75.6</ele>
        <time>2014-01-14T12:33:18Z</time>
      </trkpt>
      <trkpt lat="48.47793" lon="2.65655">
        <ele>75.6</ele>
        <time>2014-01-14T12:33:32Z</time>
      </trkpt>
      <trkpt lat="48.47798" lon="2.65634">
        <ele>75.6</ele>
        <time>2014-01-14T12:33:35Z</time>
      </trkpt>
      <trkpt lat="48.47802" lon="2.6562">
        <ele>75.6</ele>
        <time>2014-01-14T12:33:37Z</time>
      </trkpt>
      <trkpt lat="48.47804" lon="2.65614">
        <ele>75.6</ele>
        <time>2014-01-14T12:33:38Z</time>
      </trkpt>
      <trkpt lat="48.47808" lon="2.65584">
        <ele>76.08</ele>
        <time>2014-01-14T12:33:43Z</time>
      </trkpt>
      <trkpt lat="48.47824" lon="2.65509">
        <ele>76.08</ele>
        <time>2014-01-14T12:33:54Z</time>
      </trkpt>
      <trkpt lat="48.47826" lon="2.65502">
        <ele>76.08</ele>
        <time>2014-01-14T12:33:55Z</time>
      </trkpt>
      <trkpt lat="48.47834" lon="2.6547">
        <ele>76.08</ele>
        <time>2014-01-14T12:34:00Z</time>
      </trkpt>
      <trkpt lat="48.47835" lon="2.65463">
        <ele>76.08</ele>
        <time>2014-01-14T12:34:01Z</time>
      </trkpt>
      <trkpt lat="48.47839" lon="2.65439">
        <ele>76.08</ele>
        <time>2014-01-14T12:34:05Z</time>
      </trkpt>
      <trkpt lat="48.47853" lon="2.65369">
        <ele>76.08</ele>
        <time>2014-01-14T12:34:16Z</time>
      </trkpt>
      <trkpt lat="48.47867" lon="2.65309">
        <ele>76.08</ele>
        <time>2014-01-14T12:34:25Z</time>
      </trkpt>
      <trkpt lat="48.47869" lon="2.65302">
        <ele>76.08</ele>
        <time>2014-01-14T12:34:26Z</time>
      </trkpt>
      <trkpt lat="48.47878" lon="2.65263">
        <ele>76.08</ele>
        <time>2014-01-14T12:34:31Z</time>
      </trkpt>
      <trkpt lat="48.47879" lon="2.65255">
        <ele>76.08</ele>
        <time>2014-01-14T12:34:32Z</time>
      </trkpt>
      <trkpt lat="48.4788" lon="2.65248">
        <ele>76.08</ele>
        <time>2014-01-14T12:34:33Z</time>
      </trkpt>
      <trkpt lat="48.47875" lon="2.65215">
        <ele>76.08</ele>
        <time>2014-01-14T12:34:38Z</time>
      </trkpt>
      <trkpt lat="48.47856" lon="2.65188">
        <ele>76.08</ele>
        <time>2014-01-14T12:34:44Z</time>
      </trkpt>
      <trkpt lat="48.47849" lon="2.6518">
        <ele>76.08</ele>
        <time>2014-01-14T12:34:46Z</time>
      </trkpt>
      <trkpt lat="48.47802" lon="2.65112">
        <ele>75.6</ele>
        <time>2014-01-14T12:35:00Z</time>
      </trkpt>
      <trkpt lat="48.47798" lon="2.65107">
        <ele>75.6</ele>
        <time>2014-01-14T12:35:01Z</time>
      </trkpt>
      <trkpt lat="48.47779" lon="2.65082">
        <ele>75.6</ele>
        <time>2014-01-14T12:35:06Z</time>
      </trkpt>
      <trkpt lat="48.47776" lon="2.65077">
        <ele>75.6</ele>
        <time>2014-01-14T12:35:07Z</time>
      </trkpt>
      <trkpt lat="48.47752" lon="2.65043">
        <ele>75.6</ele>
        <time>2014-01-14T12:35:14Z</time>
      </trkpt>
      <trkpt lat="48.47748" lon="2.65038">
        <ele>75.6</ele>
        <time>2014-01-14T12:35:15Z</time>
      </trkpt>
      <trkpt lat="48.47741" lon="2.65029">
        <ele>75.6</ele>
        <time>2014-01-14T12:35:17Z</time>
      </trkpt>
      <trkpt lat="48.47737" lon="2.65025">
        <ele>74.64</ele>
        <time>2014-01-14T12:35:18Z</time>
      </trkpt>
      <trkpt lat="48.47681" lon="2.64948">
        <ele>75.12</ele>
        <time>2014-01-14T12:35:34Z</time>
      </trkpt>
      <trkpt lat="48.47638" lon="2.64892">
        <ele>75.12</ele>
        <time>2014-01-14T12:35:46Z</time>
      </trkpt>
      <trkpt lat="48.47629" lon="2.64879">
        <ele>76.08</ele>
        <time>2014-01-14T12:35:49Z</time>
      </trkpt>
      <trkpt lat="48.47579" lon="2.64812">
        <ele>76.08</ele>
        <time>2014-01-14T12:36:03Z</time>
      </trkpt>
      <trkpt lat="48.47569" lon="2.64798">
        <ele>75.12</ele>
        <time>2014-01-14T12:36:06Z</time>
      </trkpt>
      <trkpt lat="48.47565" lon="2.64793">
        <ele>75.12</ele>
        <time>2014-01-14T12:36:07Z</time>
      </trkpt>
      <trkpt lat="48.47562" lon="2.64789">
        <ele>75.12</ele>
        <time>2014-01-14T12:36:08Z</time>
      </trkpt>
      <trkpt lat="48.4756" lon="2.64785">
        <ele>75.12</ele>
        <time>2014-01-14T12:36:09Z</time>
      </trkpt>
      <trkpt lat="48.4753" lon="2.64741">
        <ele>75.12</ele>
        <time>2014-01-14T12:36:18Z</time>
      </trkpt>
      <trkpt lat="48.47509" lon="2.64712">
        <ele>75.12</ele>
        <time>2014-01-14T12:36:24Z</time>
      </trkpt>
      <trkpt lat="48.47461" lon="2.64646">
        <ele>75.12</ele>
        <time>2014-01-14T12:36:38Z</time>
      </trkpt>
      <trkpt lat="48.47427" lon="2.64599">
        <ele>75.12</ele>
        <time>2014-01-14T12:36:48Z</time>
      </trkpt>
      <trkpt lat="48.47423" lon="2.64595">
        <ele>75.12</ele>
        <time>2014-01-14T12:36:49Z</time>
      </trkpt>
      <trkpt lat="48.4742" lon="2.64591">
        <ele>75.12</ele>
        <time>2014-01-14T12:36:50Z</time>
      </trkpt>
      <trkpt lat="48.47417" lon="2.64587">
        <ele>75.12</ele>
        <time>2014-01-14T12:36:51Z</time>
      </trkpt>
      <trkpt lat="48.47414" lon="2.64583">
        <ele>75.12</ele>
        <time>2014-01-14T12:36:52Z</time>
      </trkpt>
      <trkpt lat="48.47408" lon="2.64575">
        <ele>75.12</ele>
        <time>2014-01-14T12:36:54Z</time>
      </trkpt>
      <trkpt lat="48.47404" lon="2.6457">
        <ele>75.12</ele>
        <time>2014-01-14T12:36:55Z</time>
      </trkpt>
      <trkpt lat="48.47386" lon="2.64545">
        <ele>75.12</ele>
        <time>2014-01-14T12:37:00Z</time>
      </trkpt>
      <trkpt lat="48.47383" lon="2.6454">
        <ele>75.12</ele>
        <time>2014-01-14T12:37:01Z</time>
      </trkpt>
      <trkpt lat="48.47379" lon="2.64536">
        <ele>75.12</ele>
        <time>2014-01-14T12:37:02Z</time>
      </trkpt>
      <trkpt lat="48.47346" lon="2.64494">
        <ele>75.12</ele>
        <time>2014-01-14T12:37:11Z</time>
      </trkpt>
      <trkpt lat="48.47301" lon="2.64432">
        <ele>75.12</ele>
        <time>2014-01-14T12:37:24Z</time>
      </trkpt>
      <trkpt lat="48.47273" lon="2.64394">
        <ele>75.12</ele>
        <time>2014-01-14T12:37:32Z</time>
      </trkpt>
      <trkpt lat="48.47229" lon="2.64328">
        <ele>74.16</ele>
        <time>2014-01-14T12:37:46Z</time>
      </trkpt>
      <trkpt lat="48.47226" lon="2.64324">
        <ele>74.16</ele>
        <time>2014-01-14T12:37:47Z</time>
      </trkpt>
      <trkpt lat="48.47222" lon="2.64319">
        <ele>74.16</ele>
        <time>2014-01-14T12:37:48Z</time>
      </trkpt>
      <trkpt lat="48.47218" lon="2.64315">
        <ele>74.16</ele>
        <time>2014-01-14T12:37:49Z</time>
      </trkpt>
      <trkpt lat="48.47214" lon="2.6431">
        <ele>74.16</ele>
        <time>2014-01-14T12:37:50Z</time>
      </trkpt>
      <trkpt lat="48.47175" lon="2.64259">
        <ele>74.16</ele>
        <time>2014-01-14T12:38:01Z</time>
      </trkpt>
      <trkpt lat="48.4714" lon="2.64209">
        <ele>73.68</ele>
        <time>2014-01-14T12:38:12Z</time>
      </trkpt>
      <trkpt lat="48.47136" lon="2.64204">
        <ele>73.68</ele>
        <time>2014-01-14T12:38:13Z</time>
      </trkpt>
      <trkpt lat="48.47133" lon="2.642">
        <ele>73.68</ele>
        <time>2014-01-14T12:38:14Z</time>
      </trkpt>
      <trkpt lat="48.47129" lon="2.64195">
        <ele>73.68</ele>
        <time>2014-01-14T12:38:15Z</time>
      </trkpt>
      <trkpt lat="48.47127" lon="2.6419">
        <ele>73.68</ele>
        <time>2014-01-14T12:38:16Z</time>
      </trkpt>
      <trkpt lat="48.47087" lon="2.64137">
        <ele>73.68</ele>
        <time>2014-01-14T12:38:29Z</time>
      </trkpt>
      <trkpt lat="48.47085" lon="2.64133">
        <ele>73.68</ele>
        <time>2014-01-14T12:38:39Z</time>
      </trkpt>
      <trkpt lat="48.47083" lon="2.64134">
        <ele>73.68</ele>
        <time>2014-01-14T12:38:54Z</time>
      </trkpt>
      <trkpt lat="48.47084" lon="2.64136">
        <ele>73.68</ele>
        <time>2014-01-14T12:39:13Z</time>
      </trkpt>
      <trkpt lat="48.47081" lon="2.64132">
        <ele>74.16</ele>
        <time>2014-01-14T12:39:34Z</time>
      </trkpt>
      <trkpt lat="48.47081" lon="2.6413">
        <ele>73.2</ele>
        <time>2014-01-14T12:39:48Z</time>
      </trkpt>
      <trkpt lat="48.47081" lon="2.64137">
        <ele>73.2</ele>
        <time>2014-01-14T12:40:17Z</time>
      </trkpt>
      <trkpt lat="48.47077" lon="2.64138">
        <ele>73.68</ele>
        <time>2014-01-14T12:40:46Z</time>
      </trkpt>
      <trkpt lat="48.47078" lon="2.64129">
        <ele>73.68</ele>
        <time>2014-01-14T12:41:19Z</time>
      </trkpt>
      <trkpt lat="48.4708" lon="2.64136">
        <ele>73.2</ele>
        <time>2014-01-14T12:41:47Z</time>
      </trkpt>
      <trkpt lat="48.47082" lon="2.6414">
        <ele>73.68</ele>
        <time>2014-01-14T12:42:21Z</time>
      </trkpt>
      <trkpt lat="48.47081" lon="2.64133">
        <ele>73.68</ele>
        <time>2014-01-14T12:42:50Z</time>
      </trkpt>
      <trkpt lat="48.47086" lon="2.64137">
        <ele>73.68</ele>
        <time>2014-01-14T12:43:27Z</time>
      </trkpt>
      <trkpt lat="48.47076" lon="2.64135">
        <ele>74.16</ele>
        <time>2014-01-14T12:43:56Z</time>
      </trkpt>
      <trkpt lat="48.47076" lon="2.64132">
        <ele>74.16</ele>
        <time>2014-01-14T12:44:10Z</time>
      </trkpt>
      <trkpt lat="48.47075" lon="2.6413">
        <ele>74.16</ele>
        <time>2014-01-14T12:44:48Z</time>
      </trkpt>
      <trkpt lat="48.47076" lon="2.64135">
        <ele>74.16</ele>
        <time>2014-01-14T12:45:13Z</time>
      </trkpt>
      <trkpt lat="48.47078" lon="2.64135">
        <ele>74.64</ele>
        <time>2014-01-14T12:45:47Z</time>
      </trkpt>
      <trkpt lat="48.47078" lon="2.64135">
        <ele>74.64</ele>
        <time>2014-01-14T12:46:09Z</time>
      </trkpt>
      <trkpt lat="48.47075" lon="2.64142">
        <ele>74.64</ele>
        <time>2014-01-14T12:46:34Z</time>
      </trkpt>
      <trkpt lat="48.47077" lon="2.64137">
        <ele>75.12</ele>
        <time>2014-01-14T12:47:13Z</time>
      </trkpt>
      <trkpt lat="48.47077" lon="2.64132">
        <ele>75.12</ele>
        <time>2014-01-14T12:47:35Z</time>
      </trkpt>
      <trkpt lat="48.4708" lon="2.64129">
        <ele>75.12</ele>
        <time>2014-01-14T12:47:48Z</time>
      </trkpt>
      <trkpt lat="48.47083" lon="2.64127">
        <ele>75.12</ele>
        <time>2014-01-14T12:48:12Z</time>
      </trkpt>
      <trkpt lat="48.47081" lon="2.64131">
        <ele>75.12</ele>
        <time>2014-01-14T12:48:29Z</time>
      </trkpt>
      <trkpt lat="48.47077" lon="2.64129">
        <ele>75.6</ele>
        <time>2014-01-14T12:48:58Z</time>
      </trkpt>
      <trkpt lat="48.47076" lon="2.64129">
        <ele>75.12</ele>
        <time>2014-01-14T12:49:35Z</time>
      </trkpt>
      <trkpt lat="48.47074" lon="2.64128">
        <ele>74.64</ele>
        <time>2014-01-14T12:50:05Z</time>
      </trkpt>
      <trkpt lat="48.47074" lon="2.64135">
        <ele>75.12</ele>
        <time>2014-01-14T12:50:48Z</time>
      </trkpt>
      <trkpt lat="48.47073" lon="2.64135">
        <ele>75.12</ele>
        <time>2014-01-14T12:51:28Z</time>
      </trkpt>
      <trkpt lat="48.47067" lon="2.64136">
        <ele>75.12</ele>
        <time>2014-01-14T12:51:57Z</time>
      </trkpt>
      <trkpt lat="48.47069" lon="2.64144">
        <ele>75.12</ele>
        <time>2014-01-14T12:52:29Z</time>
      </trkpt>
      <trkpt lat="48.47073" lon="2.64149">
        <ele>75.6</ele>
        <time>2014-01-14T12:52:57Z</time>
      </trkpt>
      <trkpt lat="48.47072" lon="2.64143">
        <ele>75.12</ele>
        <time>2014-01-14T12:53:31Z</time>
      </trkpt>
      <trkpt lat="48.47072" lon="2.64136">
        <ele>75.6</ele>
        <time>2014-01-14T12:54:01Z</time>
      </trkpt>
      <trkpt lat="48.47079" lon="2.64139">
        <ele>75.6</ele>
        <time>2014-01-14T12:54:27Z</time>
      </trkpt>
      <trkpt lat="48.47083" lon="2.64132">
        <ele>75.6</ele>
        <time>2014-01-14T12:54:56Z</time>
      </trkpt>
      <trkpt lat="48.47075" lon="2.64133">
        <ele>76.08</ele>
        <time>2014-01-14T12:55:21Z</time>
      </trkpt>
      <trkpt lat="48.47087" lon="2.64134">
        <ele>76.08</ele>
        <time>2014-01-14T12:55:54Z</time>
      </trkpt>
      <trkpt lat="48.47082" lon="2.64135">
        <ele>76.56</ele>
        <time>2014-01-14T12:56:19Z</time>
      </trkpt>
      <trkpt lat="48.47077" lon="2.6414">
        <ele>77.04</ele>
        <time>2014-01-14T12:56:48Z</time>
      </trkpt>
      <trkpt lat="48.47083" lon="2.64127">
        <ele>77.04</ele>
        <time>2014-01-14T12:57:16Z</time>
      </trkpt>
      <trkpt lat="48.47085" lon="2.64124">
        <ele>77.52</ele>
        <time>2014-01-14T12:57:39Z</time>
      </trkpt>
      <trkpt lat="48.4708" lon="2.64126">
        <ele>77.52</ele>
        <time>2014-01-14T12:58:03Z</time>
      </trkpt>
      <trkpt lat="48.4707" lon="2.64112">
        <ele>77.52</ele>
        <time>2014-01-14T12:58:17Z</time>
      </trkpt>
      <trkpt lat="48.47068" lon="2.64108">
        <ele>77.52</ele>
        <time>2014-01-14T12:58:18Z</time>
      </trkpt>
      <trkpt lat="48.47066" lon="2.64105">
        <ele>77.52</ele>
        <time>2014-01-14T12:58:19Z</time>
      </trkpt>
      <trkpt lat="48.47064" lon="2.64101">
        <ele>77.52</ele>
        <time>2014-01-14T12:58:20Z</time>
      </trkpt>
      <trkpt lat="48.47061" lon="2.64098">
        <ele>77.52</ele>
        <time>2014-01-14T12:58:21Z</time>
      </trkpt>
      <trkpt lat="48.47058" lon="2.64095">
        <ele>77.52</ele>
        <time>2014-01-14T12:58:22Z</time>
      </trkpt>
      <trkpt lat="48.47024" lon="2.64049">
        <ele>77.52</ele>
        <time>2014-01-14T12:58:34Z</time>
      </trkpt>
      <trkpt lat="48.46985" lon="2.63998">
        <ele>77.52</ele>
        <time>2014-01-14T12:58:46Z</time>
      </trkpt>
      <trkpt lat="48.46953" lon="2.63954">
        <ele>77.04</ele>
        <time>2014-01-14T12:58:57Z</time>
      </trkpt>
      <trkpt lat="48.46947" lon="2.63945">
        <ele>77.04</ele>
        <time>2014-01-14T12:58:59Z</time>
      </trkpt>
      <trkpt lat="48.46944" lon="2.63941">
        <ele>77.04</ele>
        <time>2014-01-14T12:59:00Z</time>
      </trkpt>
      <trkpt lat="48.46902" lon="2.63885">
        <ele>77.04</ele>
        <time>2014-01-14T12:59:12Z</time>
      </trkpt>
      <trkpt lat="48.46864" lon="2.63835">
        <ele>77.04</ele>
        <time>2014-01-14T12:59:23Z</time>
      </trkpt>
      <trkpt lat="48.4686" lon="2.63832">
        <ele>77.04</ele>
        <time>2014-01-14T12:59:24Z</time>
      </trkpt>
      <trkpt lat="48.46855" lon="2.63831">
        <ele>77.04</ele>
        <time>2014-01-14T12:59:25Z</time>
      </trkpt>
      <trkpt lat="48.46851" lon="2.63831">
        <ele>77.52</ele>
        <time>2014-01-14T12:59:26Z</time>
      </trkpt>
      <trkpt lat="48.46846" lon="2.63832">
        <ele>77.52</ele>
        <time>2014-01-14T12:59:27Z</time>
      </trkpt>
      <trkpt lat="48.46841" lon="2.63832">
        <ele>77.52</ele>
        <time>2014-01-14T12:59:28Z</time>
      </trkpt>
      <trkpt lat="48.46836" lon="2.63832">
        <ele>77.04</ele>
        <time>2014-01-14T12:59:29Z</time>
      </trkpt>
      <trkpt lat="48.46831" lon="2.63832">
        <ele>77.52</ele>
        <time>2014-01-14T12:59:30Z</time>
      </trkpt>
      <trkpt lat="48.46781" lon="2.63837">
        <ele>77.52</ele>
        <time>2014-01-14T12:59:41Z</time>
      </trkpt>
      <trkpt lat="48.46776" lon="2.63837">
        <ele>77.52</ele>
        <time>2014-01-14T12:59:42Z</time>
      </trkpt>
      <trkpt lat="48.46772" lon="2.63838">
        <ele>77.52</ele>
        <time>2014-01-14T12:59:43Z</time>
      </trkpt>
      <trkpt lat="48.46707" lon="2.63846">
        <ele>79.45</ele>
        <time>2014-01-14T12:59:57Z</time>
      </trkpt>
      <trkpt lat="48.46689" lon="2.63848">
        <ele>80.41</ele>
        <time>2014-01-14T13:00:01Z</time>
      </trkpt>
      <trkpt lat="48.46685" lon="2.63849">
        <ele>80.41</ele>
        <time>2014-01-14T13:00:02Z</time>
      </trkpt>
      <trkpt lat="48.4666" lon="2.63851">
        <ele>82.81</ele>
        <time>2014-01-14T13:00:08Z</time>
      </trkpt>
      <trkpt lat="48.46656" lon="2.63852">
        <ele>82.81</ele>
        <time>2014-01-14T13:00:09Z</time>
      </trkpt>
      <trkpt lat="48.46603" lon="2.6386">
        <ele>84.73</ele>
        <time>2014-01-14T13:00:23Z</time>
      </trkpt>
      <trkpt lat="48.46561" lon="2.63867">
        <ele>85.69</ele>
        <time>2014-01-14T13:00:34Z</time>
      </trkpt>
      <trkpt lat="48.46515" lon="2.63872">
        <ele>88.1</ele>
        <time>2014-01-14T13:00:47Z</time>
      </trkpt>
      <trkpt lat="48.46479" lon="2.63878">
        <ele>90.5</ele>
        <time>2014-01-14T13:01:00Z</time>
      </trkpt>
      <trkpt lat="48.4646" lon="2.63881">
        <ele>89.54</ele>
        <time>2014-01-14T13:01:05Z</time>
      </trkpt>
      <trkpt lat="48.46446" lon="2.63884">
        <ele>89.06</ele>
        <time>2014-01-14T13:01:08Z</time>
      </trkpt>
      <trkpt lat="48.46434" lon="2.63883">
        <ele>88.58</ele>
        <time>2014-01-14T13:01:10Z</time>
      </trkpt>
      <trkpt lat="48.46429" lon="2.63883">
        <ele>88.1</ele>
        <time>2014-01-14T13:01:11Z</time>
      </trkpt>
      <trkpt lat="48.46423" lon="2.63883">
        <ele>88.1</ele>
        <time>2014-01-14T13:01:12Z</time>
      </trkpt>
      <trkpt lat="48.46368" lon="2.63891">
        <ele>88.1</ele>
        <time>2014-01-14T13:01:24Z</time>
      </trkpt>
      <trkpt lat="48.4633" lon="2.63898">
        <ele>88.1</ele>
        <time>2014-01-14T13:01:34Z</time>
      </trkpt>
      <trkpt lat="48.46318" lon="2.63899">
        <ele>89.54</ele>
        <time>2014-01-14T13:01:37Z</time>
      </trkpt>
      <trkpt lat="48.46281" lon="2.63904">
        <ele>90.98</ele>
        <time>2014-01-14T13:01:47Z</time>
      </trkpt>
      <trkpt lat="48.46237" lon="2.6391">
        <ele>91.94</ele>
        <time>2014-01-14T13:02:00Z</time>
      </trkpt>
      <trkpt lat="48.46193" lon="2.63919">
        <ele>93.87</ele>
        <time>2014-01-14T13:02:14Z</time>
      </trkpt>
      <trkpt lat="48.46157" lon="2.63924">
        <ele>95.31</ele>
        <time>2014-01-14T13:02:27Z</time>
      </trkpt>
      <trkpt lat="48.46123" lon="2.6393">
        <ele>96.27</ele>
        <time>2014-01-14T13:02:39Z</time>
      </trkpt>
      <trkpt lat="48.46093" lon="2.6393">
        <ele>98.67</ele>
        <time>2014-01-14T13:02:50Z</time>
      </trkpt>
      <trkpt lat="48.46083" lon="2.6393">
        <ele>99.15</ele>
        <time>2014-01-14T13:02:54Z</time>
      </trkpt>
      <trkpt lat="48.46081" lon="2.63932">
        <ele>99.15</ele>
        <time>2014-01-14T13:02:55Z</time>
      </trkpt>
      <trkpt lat="48.46079" lon="2.63933">
        <ele>99.63</ele>
        <time>2014-01-14T13:02:56Z</time>
      </trkpt>
      <trkpt lat="48.46077" lon="2.63936">
        <ele>99.63</ele>
        <time>2014-01-14T13:02:58Z</time>
      </trkpt>
      <trkpt lat="48.46077" lon="2.63939">
        <ele>99.63</ele>
        <time>2014-01-14T13:02:59Z</time>
      </trkpt>
      <trkpt lat="48.46078" lon="2.63941">
        <ele>99.63</ele>
        <time>2014-01-14T13:03:00Z</time>
      </trkpt>
      <trkpt lat="48.46085" lon="2.63975">
        <ele>99.63</ele>
        <time>2014-01-14T13:03:07Z</time>
      </trkpt>
      <trkpt lat="48.4609" lon="2.63999">
        <ele>99.63</ele>
        <time>2014-01-14T13:03:11Z</time>
      </trkpt>
      <trkpt lat="48.46091" lon="2.64006">
        <ele>99.63</ele>
        <time>2014-01-14T13:03:12Z</time>
      </trkpt>
      <trkpt lat="48.46093" lon="2.64013">
        <ele>98.19</ele>
        <time>2014-01-14T13:03:13Z</time>
      </trkpt>
      <trkpt lat="48.46094" lon="2.6402">
        <ele>98.19</ele>
        <time>2014-01-14T13:03:14Z</time>
      </trkpt>
      <trkpt lat="48.46096" lon="2.64033">
        <ele>98.19</ele>
        <time>2014-01-14T13:03:16Z</time>
      </trkpt>
      <trkpt lat="48.46098" lon="2.64047">
        <ele>97.71</ele>
        <time>2014-01-14T13:03:18Z</time>
      </trkpt>
      <trkpt lat="48.46114" lon="2.64127">
        <ele>97.71</ele>
        <time>2014-01-14T13:03:30Z</time>
      </trkpt>
      <trkpt lat="48.46117" lon="2.6414">
        <ele>97.23</ele>
        <time>2014-01-14T13:03:32Z</time>
      </trkpt>
      <trkpt lat="48.4612" lon="2.64147">
        <ele>97.23</ele>
        <time>2014-01-14T13:03:33Z</time>
      </trkpt>
      <trkpt lat="48.46126" lon="2.64158">
        <ele>97.23</ele>
        <time>2014-01-14T13:03:35Z</time>
      </trkpt>
      <trkpt lat="48.46153" lon="2.64214">
        <ele>96.27</ele>
        <time>2014-01-14T13:03:45Z</time>
      </trkpt>
      <trkpt lat="48.46155" lon="2.64219">
        <ele>96.27</ele>
        <time>2014-01-14T13:03:46Z</time>
      </trkpt>
      <trkpt lat="48.46169" lon="2.6425">
        <ele>95.79</ele>
        <time>2014-01-14T13:03:51Z</time>
      </trkpt>
      <trkpt lat="48.46172" lon="2.64257">
        <ele>95.79</ele>
        <time>2014-01-14T13:03:52Z</time>
      </trkpt>
      <trkpt lat="48.46188" lon="2.64297">
        <ele>94.35</ele>
        <time>2014-01-14T13:03:58Z</time>
      </trkpt>
      <trkpt lat="48.46193" lon="2.64313">
        <ele>94.35</ele>
        <time>2014-01-14T13:04:00Z</time>
      </trkpt>
      <trkpt lat="48.462" lon="2.64345">
        <ele>93.87</ele>
        <time>2014-01-14T13:04:04Z</time>
      </trkpt>
      <trkpt lat="48.46205" lon="2.64382">
        <ele>93.39</ele>
        <time>2014-01-14T13:04:09Z</time>
      </trkpt>
      <trkpt lat="48.46204" lon="2.64389">
        <ele>93.39</ele>
        <time>2014-01-14T13:04:10Z</time>
      </trkpt>
      <trkpt lat="48.46202" lon="2.64397">
        <ele>93.39</ele>
        <time>2014-01-14T13:04:11Z</time>
      </trkpt>
      <trkpt lat="48.462" lon="2.64403">
        <ele>93.39</ele>
        <time>2014-01-14T13:04:12Z</time>
      </trkpt>
      <trkpt lat="48.46198" lon="2.6441">
        <ele>93.39</ele>
        <time>2014-01-14T13:04:13Z</time>
      </trkpt>
      <trkpt lat="48.46195" lon="2.64416">
        <ele>93.39</ele>
        <time>2014-01-14T13:04:14Z</time>
      </trkpt>
      <trkpt lat="48.4618" lon="2.6445">
        <ele>93.39</ele>
        <time>2014-01-14T13:04:19Z</time>
      </trkpt>
      <trkpt lat="48.4617" lon="2.64474">
        <ele>94.83</ele>
        <time>2014-01-14T13:04:22Z</time>
      </trkpt>
      <trkpt lat="48.46166" lon="2.64482">
        <ele>94.83</ele>
        <time>2014-01-14T13:04:23Z</time>
      </trkpt>
      <trkpt lat="48.46139" lon="2.64555">
        <ele>95.31</ele>
        <time>2014-01-14T13:04:33Z</time>
      </trkpt>
      <trkpt lat="48.46132" lon="2.64581">
        <ele>95.31</ele>
        <time>2014-01-14T13:04:37Z</time>
      </trkpt>
      <trkpt lat="48.46131" lon="2.64587">
        <ele>95.31</ele>
        <time>2014-01-14T13:04:38Z</time>
      </trkpt>
      <trkpt lat="48.4613" lon="2.6464">
        <ele>95.31</ele>
        <time>2014-01-14T13:04:46Z</time>
      </trkpt>
      <trkpt lat="48.46135" lon="2.6471">
        <ele>93.39</ele>
        <time>2014-01-14T13:04:55Z</time>
      </trkpt>
      <trkpt lat="48.46135" lon="2.64726">
        <ele>93.39</ele>
        <time>2014-01-14T13:04:57Z</time>
      </trkpt>
      <trkpt lat="48.46133" lon="2.64788">
        <ele>92.9</ele>
        <time>2014-01-14T13:05:05Z</time>
      </trkpt>
      <trkpt lat="48.46134" lon="2.64801">
        <ele>92.9</ele>
        <time>2014-01-14T13:05:07Z</time>
      </trkpt>
      <trkpt lat="48.4613" lon="2.64911">
        <ele>92.9</ele>
        <time>2014-01-14T13:05:23Z</time>
      </trkpt>
      <trkpt lat="48.46129" lon="2.64932">
        <ele>92.9</ele>
        <time>2014-01-14T13:05:26Z</time>
      </trkpt>
      <trkpt lat="48.46129" lon="2.64946">
        <ele>92.9</ele>
        <time>2014-01-14T13:05:28Z</time>
      </trkpt>
      <trkpt lat="48.46129" lon="2.64953">
        <ele>92.9</ele>
        <time>2014-01-14T13:05:29Z</time>
      </trkpt>
      <trkpt lat="48.4613" lon="2.64967">
        <ele>92.9</ele>
        <time>2014-01-14T13:05:31Z</time>
      </trkpt>
      <trkpt lat="48.46131" lon="2.6498">
        <ele>92.9</ele>
        <time>2014-01-14T13:05:33Z</time>
      </trkpt>
      <trkpt lat="48.46132" lon="2.64986">
        <ele>92.9</ele>
        <time>2014-01-14T13:05:34Z</time>
      </trkpt>
      <trkpt lat="48.46133" lon="2.64992">
        <ele>92.9</ele>
        <time>2014-01-14T13:05:35Z</time>
      </trkpt>
      <trkpt lat="48.46139" lon="2.65074">
        <ele>95.31</ele>
        <time>2014-01-14T13:05:49Z</time>
      </trkpt>
      <trkpt lat="48.46127" lon="2.65163">
        <ele>95.79</ele>
        <time>2014-01-14T13:06:04Z</time>
      </trkpt>
      <trkpt lat="48.46115" lon="2.65232">
        <ele>96.75</ele>
        <time>2014-01-14T13:06:16Z</time>
      </trkpt>
      <trkpt lat="48.46111" lon="2.6526">
        <ele>97.23</ele>
        <time>2014-01-14T13:06:21Z</time>
      </trkpt>
      <trkpt lat="48.46097" lon="2.65315">
        <ele>97.71</ele>
        <time>2014-01-14T13:06:31Z</time>
      </trkpt>
      <trkpt lat="48.46079" lon="2.65413">
        <ele>98.67</ele>
        <time>2014-01-14T13:06:48Z</time>
      </trkpt>
      <trkpt lat="48.46064" lon="2.65474">
        <ele>100.6</ele>
        <time>2014-01-14T13:07:00Z</time>
      </trkpt>
      <trkpt lat="48.46048" lon="2.65547">
        <ele>102.04</ele>
        <time>2014-01-14T13:07:14Z</time>
      </trkpt>
      <trkpt lat="48.46045" lon="2.6557">
        <ele>102.04</ele>
        <time>2014-01-14T13:07:18Z</time>
      </trkpt>
      <trkpt lat="48.46045" lon="2.65577">
        <ele>102.04</ele>
        <time>2014-01-14T13:07:19Z</time>
      </trkpt>
      <trkpt lat="48.46037" lon="2.65628">
        <ele>100.6</ele>
        <time>2014-01-14T13:07:26Z</time>
      </trkpt>
      <trkpt lat="48.46017" lon="2.65729">
        <ele>97.23</ele>
        <time>2014-01-14T13:07:37Z</time>
      </trkpt>
      <trkpt lat="48.46005" lon="2.65784">
        <ele>96.27</ele>
        <time>2014-01-14T13:07:43Z</time>
      </trkpt>
      <trkpt lat="48.46003" lon="2.65792">
        <ele>96.27</ele>
        <time>2014-01-14T13:07:44Z</time>
      </trkpt>
      <trkpt lat="48.46001" lon="2.65801">
        <ele>96.27</ele>
        <time>2014-01-14T13:07:45Z</time>
      </trkpt>
      <trkpt lat="48.46" lon="2.65809">
        <ele>96.27</ele>
        <time>2014-01-14T13:07:46Z</time>
      </trkpt>
      <trkpt lat="48.45998" lon="2.65817">
        <ele>95.79</ele>
        <time>2014-01-14T13:07:47Z</time>
      </trkpt>
      <trkpt lat="48.45996" lon="2.65825">
        <ele>95.79</ele>
        <time>2014-01-14T13:07:48Z</time>
      </trkpt>
      <trkpt lat="48.45996" lon="2.65833">
        <ele>95.31</ele>
        <time>2014-01-14T13:07:49Z</time>
      </trkpt>
      <trkpt lat="48.45984" lon="2.6589">
        <ele>93.87</ele>
        <time>2014-01-14T13:07:55Z</time>
      </trkpt>
      <trkpt lat="48.45981" lon="2.65909">
        <ele>93.87</ele>
        <time>2014-01-14T13:07:57Z</time>
      </trkpt>
      <trkpt lat="48.45972" lon="2.65955">
        <ele>92.9</ele>
        <time>2014-01-14T13:08:02Z</time>
      </trkpt>
      <trkpt lat="48.45972" lon="2.65965">
        <ele>92.9</ele>
        <time>2014-01-14T13:08:03Z</time>
      </trkpt>
      <trkpt lat="48.45971" lon="2.65975">
        <ele>92.42</ele>
        <time>2014-01-14T13:08:04Z</time>
      </trkpt>
      <trkpt lat="48.45971" lon="2.66033">
        <ele>91.94</ele>
        <time>2014-01-14T13:08:10Z</time>
      </trkpt>
      <trkpt lat="48.45971" lon="2.66043">
        <ele>91.94</ele>
        <time>2014-01-14T13:08:11Z</time>
      </trkpt>
      <trkpt lat="48.45972" lon="2.66091">
        <ele>91.46</ele>
        <time>2014-01-14T13:08:16Z</time>
      </trkpt>
      <trkpt lat="48.45972" lon="2.661">
        <ele>91.46</ele>
        <time>2014-01-14T13:08:17Z</time>
      </trkpt>
      <trkpt lat="48.45966" lon="2.66195">
        <ele>90.5</ele>
        <time>2014-01-14T13:08:28Z</time>
      </trkpt>
      <trkpt lat="48.45966" lon="2.66255">
        <ele>90.5</ele>
        <time>2014-01-14T13:08:35Z</time>
      </trkpt>
      <trkpt lat="48.45964" lon="2.66264">
        <ele>90.5</ele>
        <time>2014-01-14T13:08:36Z</time>
      </trkpt>
      <trkpt lat="48.45962" lon="2.66272">
        <ele>90.5</ele>
        <time>2014-01-14T13:08:37Z</time>
      </trkpt>
      <trkpt lat="48.45939" lon="2.66351">
        <ele>90.5</ele>
        <time>2014-01-14T13:08:48Z</time>
      </trkpt>
      <trkpt lat="48.45934" lon="2.6637">
        <ele>90.5</ele>
        <time>2014-01-14T13:08:51Z</time>
      </trkpt>
      <trkpt lat="48.4592" lon="2.66407">
        <ele>91.46</ele>
        <time>2014-01-14T13:08:57Z</time>
      </trkpt>
      <trkpt lat="48.459" lon="2.66479">
        <ele>94.35</ele>
        <time>2014-01-14T13:09:09Z</time>
      </trkpt>
      <trkpt lat="48.45879" lon="2.66543">
        <ele>96.27</ele>
        <time>2014-01-14T13:09:22Z</time>
      </trkpt>
      <trkpt lat="48.45864" lon="2.66587">
        <ele>97.71</ele>
        <time>2014-01-14T13:09:32Z</time>
      </trkpt>
      <trkpt lat="48.45847" lon="2.66639">
        <ele>99.15</ele>
        <time>2014-01-14T13:09:44Z</time>
      </trkpt>
      <trkpt lat="48.45831" lon="2.66692">
        <ele>100.11</ele>
        <time>2014-01-14T13:09:55Z</time>
      </trkpt>
      <trkpt lat="48.45816" lon="2.6673">
        <ele>100.6</ele>
        <time>2014-01-14T13:10:04Z</time>
      </trkpt>
      <trkpt lat="48.45805" lon="2.66765">
        <ele>99.63</ele>
        <time>2014-01-14T13:10:11Z</time>
      </trkpt>
      <trkpt lat="48.45803" lon="2.66771">
        <ele>99.63</ele>
        <time>2014-01-14T13:10:12Z</time>
      </trkpt>
      <trkpt lat="48.45799" lon="2.66784">
        <ele>99.15</ele>
        <time>2014-01-14T13:10:14Z</time>
      </trkpt>
      <trkpt lat="48.45797" lon="2.66791">
        <ele>98.67</ele>
        <time>2014-01-14T13:10:15Z</time>
      </trkpt>
      <trkpt lat="48.45789" lon="2.66812">
        <ele>97.71</ele>
        <time>2014-01-14T13:10:18Z</time>
      </trkpt>
      <trkpt lat="48.45787" lon="2.66819">
        <ele>97.71</ele>
        <time>2014-01-14T13:10:19Z</time>
      </trkpt>
      <trkpt lat="48.45771" lon="2.66861">
        <ele>97.23</ele>
        <time>2014-01-14T13:10:25Z</time>
      </trkpt>
      <trkpt lat="48.45769" lon="2.66869">
        <ele>97.23</ele>
        <time>2014-01-14T13:10:26Z</time>
      </trkpt>
      <trkpt lat="48.45765" lon="2.66882">
        <ele>97.23</ele>
        <time>2014-01-14T13:10:28Z</time>
      </trkpt>
      <trkpt lat="48.45763" lon="2.66889">
        <ele>96.75</ele>
        <time>2014-01-14T13:10:29Z</time>
      </trkpt>
      <trkpt lat="48.4576" lon="2.66894">
        <ele>96.75</ele>
        <time>2014-01-14T13:10:30Z</time>
      </trkpt>
      <trkpt lat="48.45758" lon="2.669">
        <ele>96.75</ele>
        <time>2014-01-14T13:10:31Z</time>
      </trkpt>
      <trkpt lat="48.45756" lon="2.66907">
        <ele>96.75</ele>
        <time>2014-01-14T13:10:32Z</time>
      </trkpt>
      <trkpt lat="48.45754" lon="2.66912">
        <ele>96.75</ele>
        <time>2014-01-14T13:10:33Z</time>
      </trkpt>
      <trkpt lat="48.45752" lon="2.66918">
        <ele>96.27</ele>
        <time>2014-01-14T13:10:34Z</time>
      </trkpt>
      <trkpt lat="48.4575" lon="2.66923">
        <ele>96.27</ele>
        <time>2014-01-14T13:10:35Z</time>
      </trkpt>
      <trkpt lat="48.45748" lon="2.66929">
        <ele>96.27</ele>
        <time>2014-01-14T13:10:36Z</time>
      </trkpt>
      <trkpt lat="48.45746" lon="2.66935">
        <ele>96.27</ele>
        <time>2014-01-14T13:10:37Z</time>
      </trkpt>
      <trkpt lat="48.45744" lon="2.66941">
        <ele>96.75</ele>
        <time>2014-01-14T13:10:38Z</time>
      </trkpt>
      <trkpt lat="48.45743" lon="2.66946">
        <ele>96.27</ele>
        <time>2014-01-14T13:10:39Z</time>
      </trkpt>
      <trkpt lat="48.45742" lon="2.66952">
        <ele>96.27</ele>
        <time>2014-01-14T13:10:40Z</time>
      </trkpt>
      <trkpt lat="48.4573" lon="2.66994">
        <ele>95.79</ele>
        <time>2014-01-14T13:10:49Z</time>
      </trkpt>
      <trkpt lat="48.45728" lon="2.66998">
        <ele>95.79</ele>
        <time>2014-01-14T13:10:52Z</time>
      </trkpt>
      <trkpt lat="48.45728" lon="2.67">
        <ele>95.79</ele>
        <time>2014-01-14T13:10:53Z</time>
      </trkpt>
      <trkpt lat="48.45728" lon="2.67004">
        <ele>95.79</ele>
        <time>2014-01-14T13:10:54Z</time>
      </trkpt>
      <trkpt lat="48.45727" lon="2.67008">
        <ele>95.79</ele>
        <time>2014-01-14T13:10:55Z</time>
      </trkpt>
      <trkpt lat="48.45724" lon="2.67012">
        <ele>95.79</ele>
        <time>2014-01-14T13:10:56Z</time>
      </trkpt>
      <trkpt lat="48.45722" lon="2.67017">
        <ele>95.79</ele>
        <time>2014-01-14T13:10:57Z</time>
      </trkpt>
      <trkpt lat="48.4571" lon="2.67041">
        <ele>95.31</ele>
        <time>2014-01-14T13:11:03Z</time>
      </trkpt>
      <trkpt lat="48.4571" lon="2.67045">
        <ele>95.31</ele>
        <time>2014-01-14T13:11:04Z</time>
      </trkpt>
      <trkpt lat="48.45709" lon="2.6705">
        <ele>94.83</ele>
        <time>2014-01-14T13:11:05Z</time>
      </trkpt>
      <trkpt lat="48.45708" lon="2.67056">
        <ele>94.83</ele>
        <time>2014-01-14T13:11:06Z</time>
      </trkpt>
      <trkpt lat="48.45706" lon="2.67062">
        <ele>93.87</ele>
        <time>2014-01-14T13:11:07Z</time>
      </trkpt>
      <trkpt lat="48.45704" lon="2.6707">
        <ele>93.87</ele>
        <time>2014-01-14T13:11:08Z</time>
      </trkpt>
      <trkpt lat="48.45702" lon="2.67077">
        <ele>93.39</ele>
        <time>2014-01-14T13:11:09Z</time>
      </trkpt>
      <trkpt lat="48.4568" lon="2.67158">
        <ele>92.42</ele>
        <time>2014-01-14T13:11:19Z</time>
      </trkpt>
      <trkpt lat="48.45677" lon="2.67165">
        <ele>92.42</ele>
        <time>2014-01-14T13:11:20Z</time>
      </trkpt>
      <trkpt lat="48.45655" lon="2.67228">
        <ele>92.42</ele>
        <time>2014-01-14T13:11:29Z</time>
      </trkpt>
      <trkpt lat="48.45653" lon="2.67234">
        <ele>92.42</ele>
        <time>2014-01-14T13:11:30Z</time>
      </trkpt>
      <trkpt lat="48.4565" lon="2.67241">
        <ele>92.42</ele>
        <time>2014-01-14T13:11:31Z</time>
      </trkpt>
      <trkpt lat="48.45624" lon="2.67329">
        <ele>94.35</ele>
        <time>2014-01-14T13:11:44Z</time>
      </trkpt>
      <trkpt lat="48.45595" lon="2.67418">
        <ele>95.31</ele>
        <time>2014-01-14T13:12:00Z</time>
      </trkpt>
      <trkpt lat="48.45576" lon="2.67484">
        <ele>94.35</ele>
        <time>2014-01-14T13:12:13Z</time>
      </trkpt>
      <trkpt lat="48.45555" lon="2.67538">
        <ele>95.31</ele>
        <time>2014-01-14T13:12:25Z</time>
      </trkpt>
      <trkpt lat="48.45537" lon="2.6759">
        <ele>98.67</ele>
        <time>2014-01-14T13:12:38Z</time>
      </trkpt>
      <trkpt lat="48.45529" lon="2.67624">
        <ele>99.15</ele>
        <time>2014-01-14T13:12:47Z</time>
      </trkpt>
      <trkpt lat="48.45525" lon="2.67641">
        <ele>97.71</ele>
        <time>2014-01-14T13:12:50Z</time>
      </trkpt>
      <trkpt lat="48.45521" lon="2.67649">
        <ele>96.75</ele>
        <time>2014-01-14T13:12:51Z</time>
      </trkpt>
      <trkpt lat="48.45513" lon="2.67671">
        <ele>96.27</ele>
        <time>2014-01-14T13:12:54Z</time>
      </trkpt>
      <trkpt lat="48.45511" lon="2.67677">
        <ele>96.27</ele>
        <time>2014-01-14T13:12:55Z</time>
      </trkpt>
      <trkpt lat="48.45509" lon="2.67683">
        <ele>95.79</ele>
        <time>2014-01-14T13:12:56Z</time>
      </trkpt>
      <trkpt lat="48.45507" lon="2.6769">
        <ele>95.79</ele>
        <time>2014-01-14T13:12:57Z</time>
      </trkpt>
      <trkpt lat="48.45505" lon="2.67698">
        <ele>95.31</ele>
        <time>2014-01-14T13:12:58Z</time>
      </trkpt>
      <trkpt lat="48.45476" lon="2.67787">
        <ele>94.35</ele>
        <time>2014-01-14T13:13:10Z</time>
      </trkpt>
      <trkpt lat="48.45462" lon="2.67833">
        <ele>94.83</ele>
        <time>2014-01-14T13:13:17Z</time>
      </trkpt>
      <trkpt lat="48.4546" lon="2.6784">
        <ele>94.83</ele>
        <time>2014-01-14T13:13:18Z</time>
      </trkpt>
      <trkpt lat="48.4545" lon="2.67869">
        <ele>93.87</ele>
        <time>2014-01-14T13:13:22Z</time>
      </trkpt>
      <trkpt lat="48.45437" lon="2.67908">
        <ele>93.39</ele>
        <time>2014-01-14T13:13:27Z</time>
      </trkpt>
      <trkpt lat="48.45407" lon="2.67995">
        <ele>90.98</ele>
        <time>2014-01-14T13:13:39Z</time>
      </trkpt>
      <trkpt lat="48.45402" lon="2.68009">
        <ele>90.5</ele>
        <time>2014-01-14T13:13:41Z</time>
      </trkpt>
      <trkpt lat="48.45394" lon="2.68032">
        <ele>90.5</ele>
        <time>2014-01-14T13:13:44Z</time>
      </trkpt>
      <trkpt lat="48.45392" lon="2.6804">
        <ele>90.5</ele>
        <time>2014-01-14T13:13:45Z</time>
      </trkpt>
      <trkpt lat="48.45385" lon="2.68064">
        <ele>90.5</ele>
        <time>2014-01-14T13:13:48Z</time>
      </trkpt>
      <trkpt lat="48.45353" lon="2.68163">
        <ele>90.5</ele>
        <time>2014-01-14T13:14:02Z</time>
      </trkpt>
      <trkpt lat="48.45351" lon="2.68168">
        <ele>90.5</ele>
        <time>2014-01-14T13:14:03Z</time>
      </trkpt>
      <trkpt lat="48.45332" lon="2.68212">
        <ele>90.5</ele>
        <time>2014-01-14T13:14:12Z</time>
      </trkpt>
      <trkpt lat="48.45283" lon="2.68246">
        <ele>92.9</ele>
        <time>2014-01-14T13:14:26Z</time>
      </trkpt>
      <trkpt lat="48.45236" lon="2.68277">
        <ele>93.39</ele>
        <time>2014-01-14T13:14:39Z</time>
      </trkpt>
      <trkpt lat="48.45192" lon="2.68302">
        <ele>94.35</ele>
        <time>2014-01-14T13:14:51Z</time>
      </trkpt>
      <trkpt lat="48.45191" lon="2.683">
        <ele>94.35</ele>
        <time>2014-01-14T13:14:52Z</time>
      </trkpt>
      <trkpt lat="48.4519" lon="2.68298">
        <ele>94.35</ele>
        <time>2014-01-14T13:14:53Z</time>
      </trkpt>
      <trkpt lat="48.4519" lon="2.68295">
        <ele>94.35</ele>
        <time>2014-01-14T13:14:54Z</time>
      </trkpt>
      <trkpt lat="48.45188" lon="2.68294">
        <ele>94.35</ele>
        <time>2014-01-14T13:14:55Z</time>
      </trkpt>
      <trkpt lat="48.45187" lon="2.68293">
        <ele>94.35</ele>
        <time>2014-01-14T13:14:56Z</time>
      </trkpt>
      <trkpt lat="48.45186" lon="2.68292">
        <ele>94.35</ele>
        <time>2014-01-14T13:14:57Z</time>
      </trkpt>
      <trkpt lat="48.45164" lon="2.68269">
        <ele>94.83</ele>
        <time>2014-01-14T13:15:11Z</time>
      </trkpt>
      <trkpt lat="48.45123" lon="2.68222">
        <ele>96.27</ele>
        <time>2014-01-14T13:15:26Z</time>
      </trkpt>
      <trkpt lat="48.45074" lon="2.68163">
        <ele>96.75</ele>
        <time>2014-01-14T13:15:44Z</time>
      </trkpt>
      <trkpt lat="48.4507" lon="2.68161">
        <ele>96.75</ele>
        <time>2014-01-14T13:15:45Z</time>
      </trkpt>
      <trkpt lat="48.45067" lon="2.68161">
        <ele>96.75</ele>
        <time>2014-01-14T13:15:46Z</time>
      </trkpt>
      <trkpt lat="48.45065" lon="2.68162">
        <ele>96.75</ele>
        <time>2014-01-14T13:15:47Z</time>
      </trkpt>
      <trkpt lat="48.45062" lon="2.68162">
        <ele>96.75</ele>
        <time>2014-01-14T13:15:48Z</time>
      </trkpt>
      <trkpt lat="48.4506" lon="2.68162">
        <ele>96.75</ele>
        <time>2014-01-14T13:15:49Z</time>
      </trkpt>
      <trkpt lat="48.45057" lon="2.68161">
        <ele>96.75</ele>
        <time>2014-01-14T13:15:50Z</time>
      </trkpt>
      <trkpt lat="48.45023" lon="2.68157">
        <ele>97.71</ele>
        <time>2014-01-14T13:16:01Z</time>
      </trkpt>
      <trkpt lat="48.44984" lon="2.68162">
        <ele>100.11</ele>
        <time>2014-01-14T13:16:15Z</time>
      </trkpt>
      <trkpt lat="48.44961" lon="2.6816">
        <ele>101.56</ele>
        <time>2014-01-14T13:16:24Z</time>
      </trkpt>
      <trkpt lat="48.44935" lon="2.68142">
        <ele>103.48</ele>
        <time>2014-01-14T13:16:36Z</time>
      </trkpt>
      <trkpt lat="48.4493" lon="2.68136">
        <ele>103.96</ele>
        <time>2014-01-14T13:16:47Z</time>
      </trkpt>
      <trkpt lat="48.44929" lon="2.68137">
        <ele>103.96</ele>
        <time>2014-01-14T13:16:49Z</time>
      </trkpt>
      <trkpt lat="48.44928" lon="2.68137">
        <ele>103.96</ele>
        <time>2014-01-14T13:16:50Z</time>
      </trkpt>
      <trkpt lat="48.44926" lon="2.68138">
        <ele>104.44</ele>
        <time>2014-01-14T13:16:51Z</time>
      </trkpt>
      <trkpt lat="48.44924" lon="2.68138">
        <ele>104.44</ele>
        <time>2014-01-14T13:16:52Z</time>
      </trkpt>
      <trkpt lat="48.44922" lon="2.68138">
        <ele>104.44</ele>
        <time>2014-01-14T13:16:53Z</time>
      </trkpt>
      <trkpt lat="48.4492" lon="2.68137">
        <ele>104.44</ele>
        <time>2014-01-14T13:16:54Z</time>
      </trkpt>
      <trkpt lat="48.44894" lon="2.68127">
        <ele>106.36</ele>
        <time>2014-01-14T13:17:08Z</time>
      </trkpt>
      <trkpt lat="48.44867" lon="2.68117">
        <ele>108.29</ele>
        <time>2014-01-14T13:17:22Z</time>
      </trkpt>
      <trkpt lat="48.44865" lon="2.68117">
        <ele>108.29</ele>
        <time>2014-01-14T13:17:23Z</time>
      </trkpt>
      <trkpt lat="48.44863" lon="2.68116">
        <ele>108.77</ele>
        <time>2014-01-14T13:17:24Z</time>
      </trkpt>
      <trkpt lat="48.44861" lon="2.68116">
        <ele>108.77</ele>
        <time>2014-01-14T13:17:25Z</time>
      </trkpt>
      <trkpt lat="48.4486" lon="2.68115">
        <ele>108.77</ele>
        <time>2014-01-14T13:17:26Z</time>
      </trkpt>
      <trkpt lat="48.44858" lon="2.68114">
        <ele>108.77</ele>
        <time>2014-01-14T13:17:27Z</time>
      </trkpt>
      <trkpt lat="48.44832" lon="2.68106">
        <ele>111.65</ele>
        <time>2014-01-14T13:17:41Z</time>
      </trkpt>
      <trkpt lat="48.44808" lon="2.68098">
        <ele>113.09</ele>
        <time>2014-01-14T13:17:54Z</time>
      </trkpt>
      <trkpt lat="48.44783" lon="2.68085">
        <ele>115.98</ele>
        <time>2014-01-14T13:18:07Z</time>
      </trkpt>
      <trkpt lat="48.44756" lon="2.6807">
        <ele>118.38</ele>
        <time>2014-01-14T13:18:22Z</time>
      </trkpt>
      <trkpt lat="48.44738" lon="2.68065">
        <ele>120.78</ele>
        <time>2014-01-14T13:18:33Z</time>
      </trkpt>
      <trkpt lat="48.44727" lon="2.68062">
        <ele>122.22</ele>
        <time>2014-01-14T13:18:39Z</time>
      </trkpt>
      <trkpt lat="48.44725" lon="2.68061">
        <ele>122.22</ele>
        <time>2014-01-14T13:18:40Z</time>
      </trkpt>
      <trkpt lat="48.44724" lon="2.68061">
        <ele>122.22</ele>
        <time>2014-01-14T13:18:41Z</time>
      </trkpt>
      <trkpt lat="48.44722" lon="2.68061">
        <ele>122.22</ele>
        <time>2014-01-14T13:18:42Z</time>
      </trkpt>
      <trkpt lat="48.4472" lon="2.68061">
        <ele>122.71</ele>
        <time>2014-01-14T13:18:43Z</time>
      </trkpt>
      <trkpt lat="48.44695" lon="2.68053">
        <ele>125.59</ele>
        <time>2014-01-14T13:18:58Z</time>
      </trkpt>
      <trkpt lat="48.44676" lon="2.68042">
        <ele>128.47</ele>
        <time>2014-01-14T13:19:09Z</time>
      </trkpt>
      <trkpt lat="48.44663" lon="2.68033">
        <ele>130.4</ele>
        <time>2014-01-14T13:19:17Z</time>
      </trkpt>
      <trkpt lat="48.44662" lon="2.68031">
        <ele>130.4</ele>
        <time>2014-01-14T13:19:18Z</time>
      </trkpt>
      <trkpt lat="48.44648" lon="2.68024">
        <ele>133.76</ele>
        <time>2014-01-14T13:19:27Z</time>
      </trkpt>
      <trkpt lat="48.4463" lon="2.68017">
        <ele>135.2</ele>
        <time>2014-01-14T13:19:40Z</time>
      </trkpt>
      <trkpt lat="48.4461" lon="2.68017">
        <ele>136.16</ele>
        <time>2014-01-14T13:19:55Z</time>
      </trkpt>
      <trkpt lat="48.44592" lon="2.68017">
        <ele>136.64</ele>
        <time>2014-01-14T13:20:07Z</time>
      </trkpt>
      <trkpt lat="48.44579" lon="2.68017">
        <ele>136.64</ele>
        <time>2014-01-14T13:20:15Z</time>
      </trkpt>
      <trkpt lat="48.44555" lon="2.6802">
        <ele>136.64</ele>
        <time>2014-01-14T13:20:25Z</time>
      </trkpt>
      <trkpt lat="48.44541" lon="2.68012">
        <ele>136.64</ele>
        <time>2014-01-14T13:20:31Z</time>
      </trkpt>
      <trkpt lat="48.44534" lon="2.68011">
        <ele>136.64</ele>
        <time>2014-01-14T13:20:40Z</time>
      </trkpt>
      <trkpt lat="48.44531" lon="2.6801">
        <ele>136.64</ele>
        <time>2014-01-14T13:20:41Z</time>
      </trkpt>
      <trkpt lat="48.44528" lon="2.6801">
        <ele>136.64</ele>
        <time>2014-01-14T13:20:42Z</time>
      </trkpt>
      <trkpt lat="48.44525" lon="2.6801">
        <ele>136.64</ele>
        <time>2014-01-14T13:20:43Z</time>
      </trkpt>
      <trkpt lat="48.44524" lon="2.68011">
        <ele>136.64</ele>
        <time>2014-01-14T13:20:44Z</time>
      </trkpt>
      <trkpt lat="48.44519" lon="2.68012">
        <ele>135.2</ele>
        <time>2014-01-14T13:20:49Z</time>
      </trkpt>
      <trkpt lat="48.44515" lon="2.68011">
        <ele>135.2</ele>
        <time>2014-01-14T13:20:53Z</time>
      </trkpt>
      <trkpt lat="48.44514" lon="2.6801">
        <ele>135.2</ele>
        <time>2014-01-14T13:20:54Z</time>
      </trkpt>
      <trkpt lat="48.44511" lon="2.68009">
        <ele>135.2</ele>
        <time>2014-01-14T13:20:56Z</time>
      </trkpt>
      <trkpt lat="48.44509" lon="2.6801">
        <ele>135.2</ele>
        <time>2014-01-14T13:20:57Z</time>
      </trkpt>
      <trkpt lat="48.44507" lon="2.68011">
        <ele>135.2</ele>
        <time>2014-01-14T13:20:58Z</time>
      </trkpt>
      <trkpt lat="48.44504" lon="2.68012">
        <ele>135.2</ele>
        <time>2014-01-14T13:20:59Z</time>
      </trkpt>
      <trkpt lat="48.44502" lon="2.68013">
        <ele>135.2</ele>
        <time>2014-01-14T13:21:00Z</time>
      </trkpt>
      <trkpt lat="48.44501" lon="2.68015">
        <ele>135.2</ele>
        <time>2014-01-14T13:21:01Z</time>
      </trkpt>
      <trkpt lat="48.44499" lon="2.68016">
        <ele>135.2</ele>
        <time>2014-01-14T13:21:02Z</time>
      </trkpt>
      <trkpt lat="48.44498" lon="2.68018">
        <ele>135.2</ele>
        <time>2014-01-14T13:21:03Z</time>
      </trkpt>
      <trkpt lat="48.44496" lon="2.6802">
        <ele>135.2</ele>
        <time>2014-01-14T13:21:04Z</time>
      </trkpt>
      <trkpt lat="48.44481" lon="2.68048">
        <ele>134.72</ele>
        <time>2014-01-14T13:21:13Z</time>
      </trkpt>
      <trkpt lat="48.44479" lon="2.68049">
        <ele>134.72</ele>
        <time>2014-01-14T13:21:14Z</time>
      </trkpt>
      <trkpt lat="48.44473" lon="2.68054">
        <ele>134.72</ele>
        <time>2014-01-14T13:21:17Z</time>
      </trkpt>
      <trkpt lat="48.44472" lon="2.68057">
        <ele>134.72</ele>
        <time>2014-01-14T13:21:18Z</time>
      </trkpt>
      <trkpt lat="48.44471" lon="2.68059">
        <ele>134.72</ele>
        <time>2014-01-14T13:21:19Z</time>
      </trkpt>
      <trkpt lat="48.44469" lon="2.68062">
        <ele>136.16</ele>
        <time>2014-01-14T13:21:20Z</time>
      </trkpt>
      <trkpt lat="48.44468" lon="2.68064">
        <ele>136.16</ele>
        <time>2014-01-14T13:21:21Z</time>
      </trkpt>
      <trkpt lat="48.44467" lon="2.68066">
        <ele>136.16</ele>
        <time>2014-01-14T13:21:22Z</time>
      </trkpt>
      <trkpt lat="48.44467" lon="2.6807">
        <ele>136.16</ele>
        <time>2014-01-14T13:21:24Z</time>
      </trkpt>
      <trkpt lat="48.44468" lon="2.68073">
        <ele>134.72</ele>
        <time>2014-01-14T13:21:25Z</time>
      </trkpt>
      <trkpt lat="48.44467" lon="2.68078">
        <ele>133.76</ele>
        <time>2014-01-14T13:21:26Z</time>
      </trkpt>
      <trkpt lat="48.44465" lon="2.68083">
        <ele>133.76</ele>
        <time>2014-01-14T13:21:27Z</time>
      </trkpt>
      <trkpt lat="48.44463" lon="2.68089">
        <ele>133.76</ele>
        <time>2014-01-14T13:21:28Z</time>
      </trkpt>
      <trkpt lat="48.44451" lon="2.68119">
        <ele>133.76</ele>
        <time>2014-01-14T13:21:35Z</time>
      </trkpt>
      <trkpt lat="48.44449" lon="2.68123">
        <ele>135.68</ele>
        <time>2014-01-14T13:21:36Z</time>
      </trkpt>
      <trkpt lat="48.44448" lon="2.68126">
        <ele>135.2</ele>
        <time>2014-01-14T13:21:37Z</time>
      </trkpt>
      <trkpt lat="48.44447" lon="2.6813">
        <ele>135.2</ele>
        <time>2014-01-14T13:21:38Z</time>
      </trkpt>
      <trkpt lat="48.44446" lon="2.68134">
        <ele>135.2</ele>
        <time>2014-01-14T13:21:39Z</time>
      </trkpt>
      <trkpt lat="48.44445" lon="2.68138">
        <ele>135.2</ele>
        <time>2014-01-14T13:21:40Z</time>
      </trkpt>
      <trkpt lat="48.44444" lon="2.68143">
        <ele>135.2</ele>
        <time>2014-01-14T13:21:41Z</time>
      </trkpt>
      <trkpt lat="48.44432" lon="2.68204">
        <ele>135.2</ele>
        <time>2014-01-14T13:21:53Z</time>
      </trkpt>
      <trkpt lat="48.44429" lon="2.68214">
        <ele>134.24</ele>
        <time>2014-01-14T13:21:55Z</time>
      </trkpt>
      <trkpt lat="48.44426" lon="2.68216">
        <ele>133.76</ele>
        <time>2014-01-14T13:21:56Z</time>
      </trkpt>
      <trkpt lat="48.44422" lon="2.68217">
        <ele>133.76</ele>
        <time>2014-01-14T13:21:57Z</time>
      </trkpt>
      <trkpt lat="48.44418" lon="2.68218">
        <ele>133.76</ele>
        <time>2014-01-14T13:21:58Z</time>
      </trkpt>
      <trkpt lat="48.44398" lon="2.68231">
        <ele>133.28</ele>
        <time>2014-01-14T13:22:05Z</time>
      </trkpt>
      <trkpt lat="48.44395" lon="2.68232">
        <ele>133.28</ele>
        <time>2014-01-14T13:22:06Z</time>
      </trkpt>
      <trkpt lat="48.44392" lon="2.68232">
        <ele>133.28</ele>
        <time>2014-01-14T13:22:07Z</time>
      </trkpt>
      <trkpt lat="48.44389" lon="2.68232">
        <ele>133.28</ele>
        <time>2014-01-14T13:22:08Z</time>
      </trkpt>
      <trkpt lat="48.44388" lon="2.68232">
        <ele>133.28</ele>
        <time>2014-01-14T13:22:09Z</time>
      </trkpt>
      <trkpt lat="48.44387" lon="2.68234">
        <ele>133.28</ele>
        <time>2014-01-14T13:22:10Z</time>
      </trkpt>
      <trkpt lat="48.44386" lon="2.68234">
        <ele>133.28</ele>
        <time>2014-01-14T13:22:11Z</time>
      </trkpt>
      <trkpt lat="48.44369" lon="2.68242">
        <ele>133.28</ele>
        <time>2014-01-14T13:22:19Z</time>
      </trkpt>
      <trkpt lat="48.44367" lon="2.68241">
        <ele>133.28</ele>
        <time>2014-01-14T13:22:20Z</time>
      </trkpt>
      <trkpt lat="48.44364" lon="2.68239">
        <ele>133.28</ele>
        <time>2014-01-14T13:22:23Z</time>
      </trkpt>
      <trkpt lat="48.44355" lon="2.6822">
        <ele>133.28</ele>
        <time>2014-01-14T13:22:30Z</time>
      </trkpt>
      <trkpt lat="48.44355" lon="2.68216">
        <ele>133.28</ele>
        <time>2014-01-14T13:22:31Z</time>
      </trkpt>
      <trkpt lat="48.44355" lon="2.68213">
        <ele>133.28</ele>
        <time>2014-01-14T13:22:32Z</time>
      </trkpt>
      <trkpt lat="48.44354" lon="2.68211">
        <ele>133.28</ele>
        <time>2014-01-14T13:22:33Z</time>
      </trkpt>
      <trkpt lat="48.44352" lon="2.68209">
        <ele>133.28</ele>
        <time>2014-01-14T13:22:34Z</time>
      </trkpt>
      <trkpt lat="48.44349" lon="2.68207">
        <ele>133.28</ele>
        <time>2014-01-14T13:22:35Z</time>
      </trkpt>
      <trkpt lat="48.44339" lon="2.68197">
        <ele>134.24</ele>
        <time>2014-01-14T13:22:39Z</time>
      </trkpt>
      <trkpt lat="48.44336" lon="2.68186">
        <ele>134.72</ele>
        <time>2014-01-14T13:22:42Z</time>
      </trkpt>
      <trkpt lat="48.44334" lon="2.68184">
        <ele>135.68</ele>
        <time>2014-01-14T13:22:43Z</time>
      </trkpt>
      <trkpt lat="48.44332" lon="2.68182">
        <ele>135.68</ele>
        <time>2014-01-14T13:22:44Z</time>
      </trkpt>
      <trkpt lat="48.4433" lon="2.6818">
        <ele>136.16</ele>
        <time>2014-01-14T13:22:45Z</time>
      </trkpt>
      <trkpt lat="48.44329" lon="2.68178">
        <ele>136.16</ele>
        <time>2014-01-14T13:22:46Z</time>
      </trkpt>
      <trkpt lat="48.44327" lon="2.68175">
        <ele>136.16</ele>
        <time>2014-01-14T13:22:47Z</time>
      </trkpt>
      <trkpt lat="48.44325" lon="2.68172">
        <ele>134.72</ele>
        <time>2014-01-14T13:22:48Z</time>
      </trkpt>
      <trkpt lat="48.44323" lon="2.68167">
        <ele>134.72</ele>
        <time>2014-01-14T13:22:49Z</time>
      </trkpt>
      <trkpt lat="48.44322" lon="2.68163">
        <ele>134.72</ele>
        <time>2014-01-14T13:22:50Z</time>
      </trkpt>
      <trkpt lat="48.44321" lon="2.68161">
        <ele>136.16</ele>
        <time>2014-01-14T13:22:51Z</time>
      </trkpt>
      <trkpt lat="48.4432" lon="2.68159">
        <ele>136.64</ele>
        <time>2014-01-14T13:22:52Z</time>
      </trkpt>
      <trkpt lat="48.44319" lon="2.68156">
        <ele>136.64</ele>
        <time>2014-01-14T13:22:53Z</time>
      </trkpt>
      <trkpt lat="48.44318" lon="2.68154">
        <ele>136.64</ele>
        <time>2014-01-14T13:22:54Z</time>
      </trkpt>
      <trkpt lat="48.44317" lon="2.68152">
        <ele>136.64</ele>
        <time>2014-01-14T13:22:55Z</time>
      </trkpt>
      <trkpt lat="48.44315" lon="2.68151">
        <ele>136.64</ele>
        <time>2014-01-14T13:22:56Z</time>
      </trkpt>
      <trkpt lat="48.44314" lon="2.6815">
        <ele>136.64</ele>
        <time>2014-01-14T13:22:57Z</time>
      </trkpt>
      <trkpt lat="48.44312" lon="2.68148">
        <ele>136.64</ele>
        <time>2014-01-14T13:22:58Z</time>
      </trkpt>
      <trkpt lat="48.44311" lon="2.68145">
        <ele>136.64</ele>
        <time>2014-01-14T13:22:59Z</time>
      </trkpt>
      <trkpt lat="48.4431" lon="2.68142">
        <ele>136.64</ele>
        <time>2014-01-14T13:23:00Z</time>
      </trkpt>
      <trkpt lat="48.44308" lon="2.68129">
        <ele>136.64</ele>
        <time>2014-01-14T13:23:04Z</time>
      </trkpt>
      <trkpt lat="48.44308" lon="2.68126">
        <ele>136.64</ele>
        <time>2014-01-14T13:23:05Z</time>
      </trkpt>
      <trkpt lat="48.44307" lon="2.68122">
        <ele>136.64</ele>
        <time>2014-01-14T13:23:06Z</time>
      </trkpt>
      <trkpt lat="48.44307" lon="2.68115">
        <ele>137.13</ele>
        <time>2014-01-14T13:23:09Z</time>
      </trkpt>
      <trkpt lat="48.44308" lon="2.68112">
        <ele>137.61</ele>
        <time>2014-01-14T13:23:10Z</time>
      </trkpt>
      <trkpt lat="48.44309" lon="2.68109">
        <ele>137.61</ele>
        <time>2014-01-14T13:23:11Z</time>
      </trkpt>
      <trkpt lat="48.44309" lon="2.68106">
        <ele>137.61</ele>
        <time>2014-01-14T13:23:12Z</time>
      </trkpt>
      <trkpt lat="48.44309" lon="2.68102">
        <ele>137.61</ele>
        <time>2014-01-14T13:23:13Z</time>
      </trkpt>
      <trkpt lat="48.44308" lon="2.68098">
        <ele>137.61</ele>
        <time>2014-01-14T13:23:14Z</time>
      </trkpt>
      <trkpt lat="48.44308" lon="2.68094">
        <ele>137.61</ele>
        <time>2014-01-14T13:23:15Z</time>
      </trkpt>
      <trkpt lat="48.44307" lon="2.6809">
        <ele>137.61</ele>
        <time>2014-01-14T13:23:16Z</time>
      </trkpt>
      <trkpt lat="48.44305" lon="2.68086">
        <ele>137.61</ele>
        <time>2014-01-14T13:23:17Z</time>
      </trkpt>
      <trkpt lat="48.44304" lon="2.68082">
        <ele>137.61</ele>
        <time>2014-01-14T13:23:18Z</time>
      </trkpt>
      <trkpt lat="48.44302" lon="2.68079">
        <ele>137.61</ele>
        <time>2014-01-14T13:23:19Z</time>
      </trkpt>
      <trkpt lat="48.443" lon="2.68076">
        <ele>137.61</ele>
        <time>2014-01-14T13:23:20Z</time>
      </trkpt>
      <trkpt lat="48.44299" lon="2.68072">
        <ele>137.61</ele>
        <time>2014-01-14T13:23:21Z</time>
      </trkpt>
      <trkpt lat="48.44298" lon="2.68068">
        <ele>137.61</ele>
        <time>2014-01-14T13:23:22Z</time>
      </trkpt>
      <trkpt lat="48.44297" lon="2.68064">
        <ele>137.61</ele>
        <time>2014-01-14T13:23:23Z</time>
      </trkpt>
      <trkpt lat="48.44297" lon="2.6806">
        <ele>137.61</ele>
        <time>2014-01-14T13:23:24Z</time>
      </trkpt>
      <trkpt lat="48.44297" lon="2.68036">
        <ele>137.61</ele>
        <time>2014-01-14T13:23:30Z</time>
      </trkpt>
      <trkpt lat="48.44286" lon="2.67999">
        <ele>137.61</ele>
        <time>2014-01-14T13:23:40Z</time>
      </trkpt>
      <trkpt lat="48.44286" lon="2.67997">
        <ele>137.61</ele>
        <time>2014-01-14T13:23:41Z</time>
      </trkpt>
      <trkpt lat="48.44285" lon="2.67998">
        <ele>137.61</ele>
        <time>2014-01-14T13:23:49Z</time>
      </trkpt>
      <trkpt lat="48.44271" lon="2.68014">
        <ele>135.68</ele>
        <time>2014-01-14T13:23:55Z</time>
      </trkpt>
      <trkpt lat="48.4427" lon="2.68017">
        <ele>135.68</ele>
        <time>2014-01-14T13:23:56Z</time>
      </trkpt>
      <trkpt lat="48.44268" lon="2.6802">
        <ele>135.68</ele>
        <time>2014-01-14T13:23:57Z</time>
      </trkpt>
      <trkpt lat="48.44266" lon="2.68021">
        <ele>137.13</ele>
        <time>2014-01-14T13:23:58Z</time>
      </trkpt>
      <trkpt lat="48.44263" lon="2.6802">
        <ele>137.13</ele>
        <time>2014-01-14T13:23:59Z</time>
      </trkpt>
      <trkpt lat="48.44261" lon="2.68019">
        <ele>137.13</ele>
        <time>2014-01-14T13:24:00Z</time>
      </trkpt>
      <trkpt lat="48.44259" lon="2.68018">
        <ele>137.13</ele>
        <time>2014-01-14T13:24:01Z</time>
      </trkpt>
      <trkpt lat="48.44257" lon="2.68017">
        <ele>137.13</ele>
        <time>2014-01-14T13:24:02Z</time>
      </trkpt>
      <trkpt lat="48.44256" lon="2.68015">
        <ele>137.13</ele>
        <time>2014-01-14T13:24:03Z</time>
      </trkpt>
      <trkpt lat="48.44253" lon="2.68014">
        <ele>137.13</ele>
        <time>2014-01-14T13:24:04Z</time>
      </trkpt>
      <trkpt lat="48.4425" lon="2.68014">
        <ele>137.13</ele>
        <time>2014-01-14T13:24:05Z</time>
      </trkpt>
      <trkpt lat="48.44248" lon="2.68014">
        <ele>137.13</ele>
        <time>2014-01-14T13:24:06Z</time>
      </trkpt>
      <trkpt lat="48.44245" lon="2.68014">
        <ele>137.61</ele>
        <time>2014-01-14T13:24:07Z</time>
      </trkpt>
      <trkpt lat="48.44243" lon="2.68012">
        <ele>137.61</ele>
        <time>2014-01-14T13:24:08Z</time>
      </trkpt>
      <trkpt lat="48.4424" lon="2.6801">
        <ele>137.61</ele>
        <time>2014-01-14T13:24:09Z</time>
      </trkpt>
      <trkpt lat="48.44238" lon="2.68007">
        <ele>137.61</ele>
        <time>2014-01-14T13:24:10Z</time>
      </trkpt>
      <trkpt lat="48.44237" lon="2.68005">
        <ele>138.09</ele>
        <time>2014-01-14T13:24:11Z</time>
      </trkpt>
      <trkpt lat="48.44236" lon="2.68001">
        <ele>138.09</ele>
        <time>2014-01-14T13:24:14Z</time>
      </trkpt>
      <trkpt lat="48.44235" lon="2.67999">
        <ele>138.09</ele>
        <time>2014-01-14T13:24:15Z</time>
      </trkpt>
      <trkpt lat="48.44232" lon="2.67995">
        <ele>138.09</ele>
        <time>2014-01-14T13:24:24Z</time>
      </trkpt>
      <trkpt lat="48.44233" lon="2.6799">
        <ele>138.09</ele>
        <time>2014-01-14T13:24:28Z</time>
      </trkpt>
      <trkpt lat="48.44236" lon="2.67985">
        <ele>138.09</ele>
        <time>2014-01-14T13:24:31Z</time>
      </trkpt>
      <trkpt lat="48.44236" lon="2.67978">
        <ele>138.09</ele>
        <time>2014-01-14T13:24:34Z</time>
      </trkpt>
      <trkpt lat="48.44235" lon="2.67973">
        <ele>138.09</ele>
        <time>2014-01-14T13:24:35Z</time>
      </trkpt>
      <trkpt lat="48.44234" lon="2.6797">
        <ele>138.09</ele>
        <time>2014-01-14T13:24:36Z</time>
      </trkpt>
      <trkpt lat="48.44233" lon="2.67967">
        <ele>138.09</ele>
        <time>2014-01-14T13:24:37Z</time>
      </trkpt>
      <trkpt lat="48.44232" lon="2.67963">
        <ele>138.09</ele>
        <time>2014-01-14T13:24:38Z</time>
      </trkpt>
      <trkpt lat="48.44231" lon="2.6796">
        <ele>138.09</ele>
        <time>2014-01-14T13:24:39Z</time>
      </trkpt>
      <trkpt lat="48.4423" lon="2.67956">
        <ele>138.09</ele>
        <time>2014-01-14T13:24:40Z</time>
      </trkpt>
      <trkpt lat="48.4423" lon="2.67953">
        <ele>138.09</ele>
        <time>2014-01-14T13:24:41Z</time>
      </trkpt>
      <trkpt lat="48.44229" lon="2.67949">
        <ele>138.09</ele>
        <time>2014-01-14T13:24:42Z</time>
      </trkpt>
      <trkpt lat="48.44228" lon="2.67947">
        <ele>138.09</ele>
        <time>2014-01-14T13:24:43Z</time>
      </trkpt>
      <trkpt lat="48.44228" lon="2.67946">
        <ele>138.09</ele>
        <time>2014-01-14T13:24:44Z</time>
      </trkpt>
      <trkpt lat="48.44229" lon="2.67942">
        <ele>138.09</ele>
        <time>2014-01-14T13:24:54Z</time>
      </trkpt>
      <trkpt lat="48.44227" lon="2.67939">
        <ele>138.09</ele>
        <time>2014-01-14T13:25:09Z</time>
      </trkpt>
      <trkpt lat="48.44226" lon="2.67937">
        <ele>138.09</ele>
        <time>2014-01-14T13:25:11Z</time>
      </trkpt>
      <trkpt lat="48.44225" lon="2.67936">
        <ele>138.09</ele>
        <time>2014-01-14T13:25:12Z</time>
      </trkpt>
      <trkpt lat="48.44224" lon="2.67934">
        <ele>138.09</ele>
        <time>2014-01-14T13:25:13Z</time>
      </trkpt>
      <trkpt lat="48.44223" lon="2.67933">
        <ele>138.09</ele>
        <time>2014-01-14T13:25:14Z</time>
      </trkpt>
      <trkpt lat="48.44222" lon="2.6793">
        <ele>138.09</ele>
        <time>2014-01-14T13:25:15Z</time>
      </trkpt>
      <trkpt lat="48.44222" lon="2.67928">
        <ele>136.64</ele>
        <time>2014-01-14T13:25:16Z</time>
      </trkpt>
      <trkpt lat="48.44221" lon="2.67925">
        <ele>136.64</ele>
        <time>2014-01-14T13:25:17Z</time>
      </trkpt>
      <trkpt lat="48.4422" lon="2.67923">
        <ele>136.64</ele>
        <time>2014-01-14T13:25:18Z</time>
      </trkpt>
      <trkpt lat="48.44219" lon="2.67921">
        <ele>136.64</ele>
        <time>2014-01-14T13:25:19Z</time>
      </trkpt>
      <trkpt lat="48.44219" lon="2.67918">
        <ele>136.64</ele>
        <time>2014-01-14T13:25:20Z</time>
      </trkpt>
      <trkpt lat="48.44219" lon="2.67914">
        <ele>138.09</ele>
        <time>2014-01-14T13:25:23Z</time>
      </trkpt>
      <trkpt lat="48.44221" lon="2.67913">
        <ele>138.09</ele>
        <time>2014-01-14T13:25:28Z</time>
      </trkpt>
      <trkpt lat="48.44222" lon="2.67915">
        <ele>138.09</ele>
        <time>2014-01-14T13:25:29Z</time>
      </trkpt>
      <trkpt lat="48.44223" lon="2.67917">
        <ele>138.57</ele>
        <time>2014-01-14T13:25:35Z</time>
      </trkpt>
      <trkpt lat="48.44224" lon="2.67918">
        <ele>138.57</ele>
        <time>2014-01-14T13:25:36Z</time>
      </trkpt>
      <trkpt lat="48.44225" lon="2.67919">
        <ele>138.57</ele>
        <time>2014-01-14T13:25:37Z</time>
      </trkpt>
      <trkpt lat="48.44227" lon="2.67917">
        <ele>138.57</ele>
        <time>2014-01-14T13:25:42Z</time>
      </trkpt>
      <trkpt lat="48.44228" lon="2.67916">
        <ele>138.57</ele>
        <time>2014-01-14T13:25:43Z</time>
      </trkpt>
      <trkpt lat="48.4423" lon="2.67911">
        <ele>138.57</ele>
        <time>2014-01-14T13:25:47Z</time>
      </trkpt>
      <trkpt lat="48.4423" lon="2.67909">
        <ele>138.57</ele>
        <time>2014-01-14T13:25:48Z</time>
      </trkpt>
      <trkpt lat="48.44231" lon="2.67906">
        <ele>138.57</ele>
        <time>2014-01-14T13:25:49Z</time>
      </trkpt>
      <trkpt lat="48.44235" lon="2.67899">
        <ele>138.57</ele>
        <time>2014-01-14T13:25:55Z</time>
      </trkpt>
      <trkpt lat="48.44236" lon="2.67899">
        <ele>138.57</ele>
        <time>2014-01-14T13:25:56Z</time>
      </trkpt>
      <trkpt lat="48.44238" lon="2.679">
        <ele>138.57</ele>
        <time>2014-01-14T13:25:57Z</time>
      </trkpt>
      <trkpt lat="48.4424" lon="2.67901">
        <ele>138.57</ele>
        <time>2014-01-14T13:25:58Z</time>
      </trkpt>
      <trkpt lat="48.44243" lon="2.679">
        <ele>138.57</ele>
        <time>2014-01-14T13:25:59Z</time>
      </trkpt>
      <trkpt lat="48.44244" lon="2.67899">
        <ele>138.57</ele>
        <time>2014-01-14T13:26:00Z</time>
      </trkpt>
      <trkpt lat="48.44246" lon="2.67897">
        <ele>138.57</ele>
        <time>2014-01-14T13:26:01Z</time>
      </trkpt>
      <trkpt lat="48.44248" lon="2.67895">
        <ele>138.57</ele>
        <time>2014-01-14T13:26:02Z</time>
      </trkpt>
      <trkpt lat="48.44251" lon="2.67893">
        <ele>138.57</ele>
        <time>2014-01-14T13:26:04Z</time>
      </trkpt>
      <trkpt lat="48.44264" lon="2.67883">
        <ele>138.57</ele>
        <time>2014-01-14T13:26:15Z</time>
      </trkpt>
      <trkpt lat="48.44267" lon="2.67881">
        <ele>137.13</ele>
        <time>2014-01-14T13:26:22Z</time>
      </trkpt>
      <trkpt lat="48.44266" lon="2.67872">
        <ele>136.16</ele>
        <time>2014-01-14T13:26:27Z</time>
      </trkpt>
      <trkpt lat="48.44271" lon="2.67862">
        <ele>136.16</ele>
        <time>2014-01-14T13:26:32Z</time>
      </trkpt>
      <trkpt lat="48.44272" lon="2.67859">
        <ele>136.16</ele>
        <time>2014-01-14T13:26:33Z</time>
      </trkpt>
      <trkpt lat="48.44273" lon="2.67857">
        <ele>136.16</ele>
        <time>2014-01-14T13:26:34Z</time>
      </trkpt>
      <trkpt lat="48.44274" lon="2.67855">
        <ele>136.16</ele>
        <time>2014-01-14T13:26:35Z</time>
      </trkpt>
      <trkpt lat="48.44275" lon="2.67852">
        <ele>136.16</ele>
        <time>2014-01-14T13:26:36Z</time>
      </trkpt>
      <trkpt lat="48.44276" lon="2.67849">
        <ele>136.16</ele>
        <time>2014-01-14T13:26:37Z</time>
      </trkpt>
      <trkpt lat="48.44277" lon="2.67846">
        <ele>136.16</ele>
        <time>2014-01-14T13:26:38Z</time>
      </trkpt>
      <trkpt lat="48.44277" lon="2.67843">
        <ele>136.16</ele>
        <time>2014-01-14T13:26:39Z</time>
      </trkpt>
      <trkpt lat="48.44277" lon="2.6784">
        <ele>135.68</ele>
        <time>2014-01-14T13:26:40Z</time>
      </trkpt>
      <trkpt lat="48.44277" lon="2.67836">
        <ele>135.68</ele>
        <time>2014-01-14T13:26:41Z</time>
      </trkpt>
      <trkpt lat="48.44276" lon="2.67832">
        <ele>135.68</ele>
        <time>2014-01-14T13:26:42Z</time>
      </trkpt>
      <trkpt lat="48.44275" lon="2.67829">
        <ele>135.68</ele>
        <time>2014-01-14T13:26:43Z</time>
      </trkpt>
      <trkpt lat="48.44274" lon="2.67828">
        <ele>135.68</ele>
        <time>2014-01-14T13:26:44Z</time>
      </trkpt>
      <trkpt lat="48.44272" lon="2.67827">
        <ele>135.68</ele>
        <time>2014-01-14T13:26:45Z</time>
      </trkpt>
      <trkpt lat="48.44271" lon="2.67825">
        <ele>135.68</ele>
        <time>2014-01-14T13:26:46Z</time>
      </trkpt>
      <trkpt lat="48.44269" lon="2.67822">
        <ele>135.68</ele>
        <time>2014-01-14T13:26:47Z</time>
      </trkpt>
      <trkpt lat="48.44267" lon="2.67818">
        <ele>135.68</ele>
        <time>2014-01-14T13:26:48Z</time>
      </trkpt>
      <trkpt lat="48.44265" lon="2.67814">
        <ele>135.68</ele>
        <time>2014-01-14T13:26:49Z</time>
      </trkpt>
      <trkpt lat="48.44263" lon="2.678">
        <ele>135.68</ele>
        <time>2014-01-14T13:26:52Z</time>
      </trkpt>
      <trkpt lat="48.44261" lon="2.67797">
        <ele>135.68</ele>
        <time>2014-01-14T13:26:53Z</time>
      </trkpt>
      <trkpt lat="48.44251" lon="2.67766">
        <ele>136.64</ele>
        <time>2014-01-14T13:27:01Z</time>
      </trkpt>
      <trkpt lat="48.4425" lon="2.67766">
        <ele>136.64</ele>
        <time>2014-01-14T13:27:02Z</time>
      </trkpt>
      <trkpt lat="48.44249" lon="2.67767">
        <ele>136.64</ele>
        <time>2014-01-14T13:27:03Z</time>
      </trkpt>
      <trkpt lat="48.44244" lon="2.67765">
        <ele>137.13</ele>
        <time>2014-01-14T13:27:15Z</time>
      </trkpt>
      <trkpt lat="48.44244" lon="2.67764">
        <ele>136.16</ele>
        <time>2014-01-14T13:27:17Z</time>
      </trkpt>
      <trkpt lat="48.44249" lon="2.67764">
        <ele>137.13</ele>
        <time>2014-01-14T13:27:33Z</time>
      </trkpt>
      <trkpt lat="48.4425" lon="2.67763">
        <ele>137.13</ele>
        <time>2014-01-14T13:27:36Z</time>
      </trkpt>
      <trkpt lat="48.44254" lon="2.67754">
        <ele>138.57</ele>
        <time>2014-01-14T13:27:46Z</time>
      </trkpt>
      <trkpt lat="48.44255" lon="2.67751">
        <ele>138.57</ele>
        <time>2014-01-14T13:27:47Z</time>
      </trkpt>
      <trkpt lat="48.44265" lon="2.67714">
        <ele>138.57</ele>
        <time>2014-01-14T13:27:57Z</time>
      </trkpt>
      <trkpt lat="48.44267" lon="2.67711">
        <ele>138.57</ele>
        <time>2014-01-14T13:27:58Z</time>
      </trkpt>
      <trkpt lat="48.44275" lon="2.67701">
        <ele>138.57</ele>
        <time>2014-01-14T13:28:05Z</time>
      </trkpt>
      <trkpt lat="48.44278" lon="2.67692">
        <ele>139.05</ele>
        <time>2014-01-14T13:28:16Z</time>
      </trkpt>
      <trkpt lat="48.44282" lon="2.67686">
        <ele>139.05</ele>
        <time>2014-01-14T13:28:34Z</time>
      </trkpt>
      <trkpt lat="48.44282" lon="2.6767">
        <ele>139.05</ele>
        <time>2014-01-14T13:28:46Z</time>
      </trkpt>
      <trkpt lat="48.44283" lon="2.6767">
        <ele>138.09</ele>
        <time>2014-01-14T13:28:51Z</time>
      </trkpt>
      <trkpt lat="48.44283" lon="2.67669">
        <ele>136.64</ele>
        <time>2014-01-14T13:29:04Z</time>
      </trkpt>
      <trkpt lat="48.44286" lon="2.67669">
        <ele>136.64</ele>
        <time>2014-01-14T13:29:17Z</time>
      </trkpt>
      <trkpt lat="48.44288" lon="2.67667">
        <ele>136.64</ele>
        <time>2014-01-14T13:29:19Z</time>
      </trkpt>
      <trkpt lat="48.44291" lon="2.67654">
        <ele>135.2</ele>
        <time>2014-01-14T13:29:24Z</time>
      </trkpt>
      <trkpt lat="48.44294" lon="2.67647">
        <ele>134.72</ele>
        <time>2014-01-14T13:29:26Z</time>
      </trkpt>
      <trkpt lat="48.44294" lon="2.67611">
        <ele>134.72</ele>
        <time>2014-01-14T13:29:34Z</time>
      </trkpt>
      <trkpt lat="48.44294" lon="2.67606">
        <ele>134.72</ele>
        <time>2014-01-14T13:29:35Z</time>
      </trkpt>
      <trkpt lat="48.44294" lon="2.67601">
        <ele>136.16</ele>
        <time>2014-01-14T13:29:36Z</time>
      </trkpt>
      <trkpt lat="48.44294" lon="2.67595">
        <ele>136.16</ele>
        <time>2014-01-14T13:29:37Z</time>
      </trkpt>
      <trkpt lat="48.44294" lon="2.67591">
        <ele>136.16</ele>
        <time>2014-01-14T13:29:38Z</time>
      </trkpt>
      <trkpt lat="48.44296" lon="2.67583">
        <ele>136.64</ele>
        <time>2014-01-14T13:29:40Z</time>
      </trkpt>
      <trkpt lat="48.44297" lon="2.6758">
        <ele>136.64</ele>
        <time>2014-01-14T13:29:41Z</time>
      </trkpt>
      <trkpt lat="48.44298" lon="2.67578">
        <ele>136.64</ele>
        <time>2014-01-14T13:29:42Z</time>
      </trkpt>
      <trkpt lat="48.44299" lon="2.67575">
        <ele>136.64</ele>
        <time>2014-01-14T13:29:43Z</time>
      </trkpt>
      <trkpt lat="48.44299" lon="2.67571">
        <ele>136.64</ele>
        <time>2014-01-14T13:29:44Z</time>
      </trkpt>
      <trkpt lat="48.44298" lon="2.67567">
        <ele>136.64</ele>
        <time>2014-01-14T13:29:45Z</time>
      </trkpt>
      <trkpt lat="48.44299" lon="2.67562">
        <ele>136.64</ele>
        <time>2014-01-14T13:29:46Z</time>
      </trkpt>
      <trkpt lat="48.44299" lon="2.67557">
        <ele>136.64</ele>
        <time>2014-01-14T13:29:47Z</time>
      </trkpt>
      <trkpt lat="48.44299" lon="2.67551">
        <ele>136.64</ele>
        <time>2014-01-14T13:29:48Z</time>
      </trkpt>
      <trkpt lat="48.443" lon="2.67546">
        <ele>136.64</ele>
        <time>2014-01-14T13:29:49Z</time>
      </trkpt>
      <trkpt lat="48.44301" lon="2.67542">
        <ele>136.64</ele>
        <time>2014-01-14T13:29:50Z</time>
      </trkpt>
      <trkpt lat="48.44302" lon="2.67538">
        <ele>135.68</ele>
        <time>2014-01-14T13:29:51Z</time>
      </trkpt>
      <trkpt lat="48.44304" lon="2.67533">
        <ele>135.68</ele>
        <time>2014-01-14T13:29:52Z</time>
      </trkpt>
      <trkpt lat="48.44309" lon="2.67517">
        <ele>137.13</ele>
        <time>2014-01-14T13:29:57Z</time>
      </trkpt>
      <trkpt lat="48.44316" lon="2.67505">
        <ele>138.57</ele>
        <time>2014-01-14T13:30:06Z</time>
      </trkpt>
      <trkpt lat="48.4432" lon="2.67499">
        <ele>139.05</ele>
        <time>2014-01-14T13:30:10Z</time>
      </trkpt>
      <trkpt lat="48.44327" lon="2.67485">
        <ele>138.57</ele>
        <time>2014-01-14T13:30:17Z</time>
      </trkpt>
      <trkpt lat="48.44333" lon="2.67443">
        <ele>138.57</ele>
        <time>2014-01-14T13:30:27Z</time>
      </trkpt>
      <trkpt lat="48.44334" lon="2.67404">
        <ele>139.05</ele>
        <time>2014-01-14T13:30:38Z</time>
      </trkpt>
      <trkpt lat="48.44338" lon="2.67394">
        <ele>138.09</ele>
        <time>2014-01-14T13:30:52Z</time>
      </trkpt>
      <trkpt lat="48.4434" lon="2.67387">
        <ele>139.05</ele>
        <time>2014-01-14T13:31:05Z</time>
      </trkpt>
      <trkpt lat="48.4434" lon="2.67385">
        <ele>139.05</ele>
        <time>2014-01-14T13:31:13Z</time>
      </trkpt>
      <trkpt lat="48.44342" lon="2.67378">
        <ele>139.05</ele>
        <time>2014-01-14T13:31:17Z</time>
      </trkpt>
      <trkpt lat="48.44324" lon="2.67352">
        <ele>137.13</ele>
        <time>2014-01-14T13:31:28Z</time>
      </trkpt>
      <trkpt lat="48.44321" lon="2.67332">
        <ele>136.64</ele>
        <time>2014-01-14T13:31:35Z</time>
      </trkpt>
      <trkpt lat="48.4432" lon="2.67328">
        <ele>136.64</ele>
        <time>2014-01-14T13:31:38Z</time>
      </trkpt>
      <trkpt lat="48.44319" lon="2.67315">
        <ele>136.64</ele>
        <time>2014-01-14T13:31:49Z</time>
      </trkpt>
      <trkpt lat="48.44317" lon="2.67309">
        <ele>136.64</ele>
        <time>2014-01-14T13:32:04Z</time>
      </trkpt>
      <trkpt lat="48.44318" lon="2.67302">
        <ele>137.13</ele>
        <time>2014-01-14T13:32:20Z</time>
      </trkpt>
      <trkpt lat="48.44316" lon="2.67298">
        <ele>137.13</ele>
        <time>2014-01-14T13:32:22Z</time>
      </trkpt>
      <trkpt lat="48.44314" lon="2.67297">
        <ele>137.13</ele>
        <time>2014-01-14T13:32:23Z</time>
      </trkpt>
      <trkpt lat="48.44312" lon="2.67296">
        <ele>137.13</ele>
        <time>2014-01-14T13:32:24Z</time>
      </trkpt>
      <trkpt lat="48.4431" lon="2.67294">
        <ele>137.13</ele>
        <time>2014-01-14T13:32:25Z</time>
      </trkpt>
      <trkpt lat="48.44309" lon="2.67292">
        <ele>137.13</ele>
        <time>2014-01-14T13:32:26Z</time>
      </trkpt>
      <trkpt lat="48.44307" lon="2.6729">
        <ele>137.13</ele>
        <time>2014-01-14T13:32:27Z</time>
      </trkpt>
      <trkpt lat="48.44304" lon="2.67289">
        <ele>137.13</ele>
        <time>2014-01-14T13:32:28Z</time>
      </trkpt>
      <trkpt lat="48.44301" lon="2.67287">
        <ele>137.13</ele>
        <time>2014-01-14T13:32:29Z</time>
      </trkpt>
      <trkpt lat="48.44298" lon="2.67284">
        <ele>137.13</ele>
        <time>2014-01-14T13:32:30Z</time>
      </trkpt>
      <trkpt lat="48.44296" lon="2.67281">
        <ele>137.13</ele>
        <time>2014-01-14T13:32:31Z</time>
      </trkpt>
      <trkpt lat="48.44293" lon="2.67276">
        <ele>137.13</ele>
        <time>2014-01-14T13:32:32Z</time>
      </trkpt>
      <trkpt lat="48.44291" lon="2.67271">
        <ele>136.16</ele>
        <time>2014-01-14T13:32:33Z</time>
      </trkpt>
      <trkpt lat="48.44289" lon="2.67266">
        <ele>136.16</ele>
        <time>2014-01-14T13:32:34Z</time>
      </trkpt>
      <trkpt lat="48.44267" lon="2.67223">
        <ele>135.2</ele>
        <time>2014-01-14T13:32:43Z</time>
      </trkpt>
      <trkpt lat="48.44265" lon="2.67217">
        <ele>135.2</ele>
        <time>2014-01-14T13:32:44Z</time>
      </trkpt>
      <trkpt lat="48.44263" lon="2.67212">
        <ele>135.2</ele>
        <time>2014-01-14T13:32:45Z</time>
      </trkpt>
      <trkpt lat="48.44261" lon="2.6721">
        <ele>136.64</ele>
        <time>2014-01-14T13:32:46Z</time>
      </trkpt>
      <trkpt lat="48.44259" lon="2.67207">
        <ele>136.64</ele>
        <time>2014-01-14T13:32:47Z</time>
      </trkpt>
      <trkpt lat="48.44259" lon="2.67205">
        <ele>136.64</ele>
        <time>2014-01-14T13:32:48Z</time>
      </trkpt>
      <trkpt lat="48.44258" lon="2.67202">
        <ele>136.64</ele>
        <time>2014-01-14T13:32:49Z</time>
      </trkpt>
      <trkpt lat="48.44258" lon="2.67199">
        <ele>136.64</ele>
        <time>2014-01-14T13:32:50Z</time>
      </trkpt>
      <trkpt lat="48.44257" lon="2.67195">
        <ele>136.64</ele>
        <time>2014-01-14T13:32:51Z</time>
      </trkpt>
      <trkpt lat="48.44258" lon="2.6719">
        <ele>136.64</ele>
        <time>2014-01-14T13:32:52Z</time>
      </trkpt>
      <trkpt lat="48.44259" lon="2.67185">
        <ele>136.64</ele>
        <time>2014-01-14T13:32:53Z</time>
      </trkpt>
      <trkpt lat="48.4426" lon="2.6718">
        <ele>136.64</ele>
        <time>2014-01-14T13:32:54Z</time>
      </trkpt>
      <trkpt lat="48.44262" lon="2.67175">
        <ele>136.64</ele>
        <time>2014-01-14T13:32:55Z</time>
      </trkpt>
      <trkpt lat="48.44262" lon="2.67169">
        <ele>136.64</ele>
        <time>2014-01-14T13:32:56Z</time>
      </trkpt>
      <trkpt lat="48.44262" lon="2.67164">
        <ele>136.64</ele>
        <time>2014-01-14T13:32:57Z</time>
      </trkpt>
      <trkpt lat="48.44267" lon="2.67147">
        <ele>136.64</ele>
        <time>2014-01-14T13:33:00Z</time>
      </trkpt>
      <trkpt lat="48.44275" lon="2.67126">
        <ele>136.64</ele>
        <time>2014-01-14T13:33:05Z</time>
      </trkpt>
      <trkpt lat="48.44274" lon="2.67124">
        <ele>137.13</ele>
        <time>2014-01-14T13:33:06Z</time>
      </trkpt>
      <trkpt lat="48.44269" lon="2.67116">
        <ele>137.13</ele>
        <time>2014-01-14T13:33:09Z</time>
      </trkpt>
      <trkpt lat="48.44267" lon="2.67111">
        <ele>137.13</ele>
        <time>2014-01-14T13:33:10Z</time>
      </trkpt>
      <trkpt lat="48.44266" lon="2.67106">
        <ele>136.16</ele>
        <time>2014-01-14T13:33:11Z</time>
      </trkpt>
      <trkpt lat="48.44265" lon="2.671">
        <ele>136.16</ele>
        <time>2014-01-14T13:33:12Z</time>
      </trkpt>
      <trkpt lat="48.44263" lon="2.67095">
        <ele>136.16</ele>
        <time>2014-01-14T13:33:13Z</time>
      </trkpt>
      <trkpt lat="48.44256" lon="2.67075">
        <ele>135.68</ele>
        <time>2014-01-14T13:33:18Z</time>
      </trkpt>
      <trkpt lat="48.44253" lon="2.67075">
        <ele>135.68</ele>
        <time>2014-01-14T13:33:19Z</time>
      </trkpt>
      <trkpt lat="48.4425" lon="2.67076">
        <ele>135.68</ele>
        <time>2014-01-14T13:33:20Z</time>
      </trkpt>
      <trkpt lat="48.44247" lon="2.67077">
        <ele>135.68</ele>
        <time>2014-01-14T13:33:21Z</time>
      </trkpt>
      <trkpt lat="48.44246" lon="2.67079">
        <ele>135.68</ele>
        <time>2014-01-14T13:33:22Z</time>
      </trkpt>
      <trkpt lat="48.44244" lon="2.67083">
        <ele>135.68</ele>
        <time>2014-01-14T13:33:23Z</time>
      </trkpt>
      <trkpt lat="48.44243" lon="2.67085">
        <ele>135.68</ele>
        <time>2014-01-14T13:33:24Z</time>
      </trkpt>
      <trkpt lat="48.44241" lon="2.67086">
        <ele>135.68</ele>
        <time>2014-01-14T13:33:25Z</time>
      </trkpt>
      <trkpt lat="48.44237" lon="2.6709">
        <ele>137.61</ele>
        <time>2014-01-14T13:33:35Z</time>
      </trkpt>
      <trkpt lat="48.44231" lon="2.67086">
        <ele>138.09</ele>
        <time>2014-01-14T13:33:47Z</time>
      </trkpt>
      <trkpt lat="48.4423" lon="2.67085">
        <ele>138.09</ele>
        <time>2014-01-14T13:33:48Z</time>
      </trkpt>
      <trkpt lat="48.44228" lon="2.67083">
        <ele>138.09</ele>
        <time>2014-01-14T13:33:49Z</time>
      </trkpt>
      <trkpt lat="48.44225" lon="2.67079">
        <ele>138.09</ele>
        <time>2014-01-14T13:33:51Z</time>
      </trkpt>
      <trkpt lat="48.44223" lon="2.67075">
        <ele>138.09</ele>
        <time>2014-01-14T13:33:52Z</time>
      </trkpt>
      <trkpt lat="48.4422" lon="2.67062">
        <ele>138.09</ele>
        <time>2014-01-14T13:33:57Z</time>
      </trkpt>
      <trkpt lat="48.44218" lon="2.6706">
        <ele>138.09</ele>
        <time>2014-01-14T13:33:58Z</time>
      </trkpt>
      <trkpt lat="48.44216" lon="2.67056">
        <ele>138.09</ele>
        <time>2014-01-14T13:33:59Z</time>
      </trkpt>
      <trkpt lat="48.44211" lon="2.67041">
        <ele>138.09</ele>
        <time>2014-01-14T13:34:04Z</time>
      </trkpt>
      <trkpt lat="48.44211" lon="2.67038">
        <ele>138.09</ele>
        <time>2014-01-14T13:34:05Z</time>
      </trkpt>
      <trkpt lat="48.44209" lon="2.67032">
        <ele>138.09</ele>
        <time>2014-01-14T13:34:07Z</time>
      </trkpt>
      <trkpt lat="48.44208" lon="2.67029">
        <ele>138.09</ele>
        <time>2014-01-14T13:34:08Z</time>
      </trkpt>
      <trkpt lat="48.44207" lon="2.67025">
        <ele>138.09</ele>
        <time>2014-01-14T13:34:09Z</time>
      </trkpt>
      <trkpt lat="48.44206" lon="2.67022">
        <ele>138.09</ele>
        <time>2014-01-14T13:34:10Z</time>
      </trkpt>
      <trkpt lat="48.44207" lon="2.67019">
        <ele>138.09</ele>
        <time>2014-01-14T13:34:11Z</time>
      </trkpt>
      <trkpt lat="48.44207" lon="2.67017">
        <ele>138.09</ele>
        <time>2014-01-14T13:34:12Z</time>
      </trkpt>
      <trkpt lat="48.44207" lon="2.67014">
        <ele>138.09</ele>
        <time>2014-01-14T13:34:13Z</time>
      </trkpt>
      <trkpt lat="48.44207" lon="2.67011">
        <ele>138.09</ele>
        <time>2014-01-14T13:34:14Z</time>
      </trkpt>
      <trkpt lat="48.44205" lon="2.67009">
        <ele>138.09</ele>
        <time>2014-01-14T13:34:15Z</time>
      </trkpt>
      <trkpt lat="48.44204" lon="2.67006">
        <ele>138.09</ele>
        <time>2014-01-14T13:34:16Z</time>
      </trkpt>
      <trkpt lat="48.44203" lon="2.67004">
        <ele>138.09</ele>
        <time>2014-01-14T13:34:17Z</time>
      </trkpt>
      <trkpt lat="48.44202" lon="2.67001">
        <ele>138.09</ele>
        <time>2014-01-14T13:34:18Z</time>
      </trkpt>
      <trkpt lat="48.44201" lon="2.66997">
        <ele>138.09</ele>
        <time>2014-01-14T13:34:19Z</time>
      </trkpt>
      <trkpt lat="48.44197" lon="2.6698">
        <ele>138.57</ele>
        <time>2014-01-14T13:34:23Z</time>
      </trkpt>
      <trkpt lat="48.44196" lon="2.66978">
        <ele>138.57</ele>
        <time>2014-01-14T13:34:24Z</time>
      </trkpt>
      <trkpt lat="48.44195" lon="2.66975">
        <ele>138.57</ele>
        <time>2014-01-14T13:34:25Z</time>
      </trkpt>
      <trkpt lat="48.44194" lon="2.66972">
        <ele>138.57</ele>
        <time>2014-01-14T13:34:26Z</time>
      </trkpt>
      <trkpt lat="48.44193" lon="2.6697">
        <ele>139.05</ele>
        <time>2014-01-14T13:34:27Z</time>
      </trkpt>
      <trkpt lat="48.44191" lon="2.66968">
        <ele>139.05</ele>
        <time>2014-01-14T13:34:28Z</time>
      </trkpt>
      <trkpt lat="48.4419" lon="2.66967">
        <ele>139.05</ele>
        <time>2014-01-14T13:34:29Z</time>
      </trkpt>
      <trkpt lat="48.44189" lon="2.66964">
        <ele>139.05</ele>
        <time>2014-01-14T13:34:30Z</time>
      </trkpt>
      <trkpt lat="48.44189" lon="2.66961">
        <ele>139.05</ele>
        <time>2014-01-14T13:34:31Z</time>
      </trkpt>
      <trkpt lat="48.44189" lon="2.66958">
        <ele>139.05</ele>
        <time>2014-01-14T13:34:32Z</time>
      </trkpt>
      <trkpt lat="48.44189" lon="2.66955">
        <ele>139.05</ele>
        <time>2014-01-14T13:34:33Z</time>
      </trkpt>
      <trkpt lat="48.44189" lon="2.66951">
        <ele>139.05</ele>
        <time>2014-01-14T13:34:34Z</time>
      </trkpt>
      <trkpt lat="48.44188" lon="2.66947">
        <ele>139.05</ele>
        <time>2014-01-14T13:34:35Z</time>
      </trkpt>
      <trkpt lat="48.44187" lon="2.66942">
        <ele>139.05</ele>
        <time>2014-01-14T13:34:36Z</time>
      </trkpt>
      <trkpt lat="48.44186" lon="2.66939">
        <ele>139.05</ele>
        <time>2014-01-14T13:34:37Z</time>
      </trkpt>
      <trkpt lat="48.44185" lon="2.66937">
        <ele>139.05</ele>
        <time>2014-01-14T13:34:38Z</time>
      </trkpt>
      <trkpt lat="48.44184" lon="2.66935">
        <ele>139.05</ele>
        <time>2014-01-14T13:34:39Z</time>
      </trkpt>
      <trkpt lat="48.44183" lon="2.66933">
        <ele>139.05</ele>
        <time>2014-01-14T13:34:40Z</time>
      </trkpt>
      <trkpt lat="48.44181" lon="2.66927">
        <ele>139.05</ele>
        <time>2014-01-14T13:34:42Z</time>
      </trkpt>
      <trkpt lat="48.44177" lon="2.66919">
        <ele>139.05</ele>
        <time>2014-01-14T13:34:47Z</time>
      </trkpt>
      <trkpt lat="48.44176" lon="2.66917">
        <ele>139.05</ele>
        <time>2014-01-14T13:34:48Z</time>
      </trkpt>
      <trkpt lat="48.44176" lon="2.66914">
        <ele>139.05</ele>
        <time>2014-01-14T13:34:49Z</time>
      </trkpt>
      <trkpt lat="48.44176" lon="2.66912">
        <ele>139.05</ele>
        <time>2014-01-14T13:34:50Z</time>
      </trkpt>
      <trkpt lat="48.44175" lon="2.66909">
        <ele>139.05</ele>
        <time>2014-01-14T13:34:51Z</time>
      </trkpt>
      <trkpt lat="48.44174" lon="2.66907">
        <ele>139.05</ele>
        <time>2014-01-14T13:34:52Z</time>
      </trkpt>
      <trkpt lat="48.44174" lon="2.66905">
        <ele>139.05</ele>
        <time>2014-01-14T13:34:53Z</time>
      </trkpt>
      <trkpt lat="48.44173" lon="2.66903">
        <ele>139.05</ele>
        <time>2014-01-14T13:34:54Z</time>
      </trkpt>
      <trkpt lat="48.44172" lon="2.66901">
        <ele>139.05</ele>
        <time>2014-01-14T13:34:55Z</time>
      </trkpt>
      <trkpt lat="48.44171" lon="2.66899">
        <ele>139.05</ele>
        <time>2014-01-14T13:34:56Z</time>
      </trkpt>
      <trkpt lat="48.4417" lon="2.66897">
        <ele>139.05</ele>
        <time>2014-01-14T13:34:57Z</time>
      </trkpt>
      <trkpt lat="48.44168" lon="2.66896">
        <ele>139.05</ele>
        <time>2014-01-14T13:34:58Z</time>
      </trkpt>
      <trkpt lat="48.44166" lon="2.66895">
        <ele>139.05</ele>
        <time>2014-01-14T13:34:59Z</time>
      </trkpt>
      <trkpt lat="48.44165" lon="2.66895">
        <ele>139.05</ele>
        <time>2014-01-14T13:35:00Z</time>
      </trkpt>
      <trkpt lat="48.44163" lon="2.66894">
        <ele>139.05</ele>
        <time>2014-01-14T13:35:01Z</time>
      </trkpt>
      <trkpt lat="48.44147" lon="2.66889">
        <ele>139.05</ele>
        <time>2014-01-14T13:35:09Z</time>
      </trkpt>
      <trkpt lat="48.44153" lon="2.66899">
        <ele>139.05</ele>
        <time>2014-01-14T13:35:16Z</time>
      </trkpt>
      <trkpt lat="48.44155" lon="2.66899">
        <ele>139.05</ele>
        <time>2014-01-14T13:35:18Z</time>
      </trkpt>
      <trkpt lat="48.44161" lon="2.66901">
        <ele>139.05</ele>
        <time>2014-01-14T13:35:27Z</time>
      </trkpt>
      <trkpt lat="48.44167" lon="2.669">
        <ele>139.05</ele>
        <time>2014-01-14T13:35:33Z</time>
      </trkpt>
      <trkpt lat="48.44167" lon="2.66907">
        <ele>139.05</ele>
        <time>2014-01-14T13:35:43Z</time>
      </trkpt>
      <trkpt lat="48.44166" lon="2.66904">
        <ele>137.61</ele>
        <time>2014-01-14T13:35:52Z</time>
      </trkpt>
    </trkseg>
  </trk>
</gpx>